Wetterdaten: Dienstag, 20.08.2019
Datum Zeit Temp. Aussen Temp. o. S. +5cm Feuchte Auss Luftdruck Regen Sonnenschein Regendauer Solar Windben Empfang
20.08.2019 00:00 16,3 C 15,0 C 15,0 C 81 % 1019,6 hPa 0,0 l/m 0 min 0 min 0 W/m 6,4 km/h (2 Bft) 100,00 %
20.08.2019 00:02 16,3 C 15,0 C 15,0 C 81 % 1019,7 hPa 0,0 l/m 0 min 0 min 0 W/m 6,4 km/h (2 Bft) 16,67 %
20.08.2019 00:04 16,3 C 15,0 C 15,0 C 81 % 1019,7 hPa 0,0 l/m 0 min 0 min 0 W/m 12,9 km/h (3 Bft) 77,27 %
20.08.2019 00:08 16,2 C 15,0 C 15,0 C 81 % 1019,7 hPa 0,0 l/m 0 min 0 min 0 W/m 6,4 km/h (2 Bft) 100,00 %
20.08.2019 00:10 16,2 C 15,0 C 15,0 C 82 % 1019,7 hPa 0,0 l/m 0 min 0 min 0 W/m 6,4 km/h (2 Bft) 97,87 %
20.08.2019 00:12 16,2 C 15,0 C 15,0 C 82 % 1019,7 hPa 0,0 l/m 0 min 0 min 0 W/m 9,7 km/h (2 Bft) 100,00 %
20.08.2019 00:14 16,2 C 15,0 C 15,0 C 82 % 1019,7 hPa 0,0 l/m 0 min 0 min 0 W/m 6,4 km/h (2 Bft) 100,00 %
20.08.2019 00:16 16,2 C 15,0 C 15,0 C 82 % 1019,8 hPa 0,0 l/m 0 min 0 min 0 W/m 6,4 km/h (2 Bft) 100,00 %
20.08.2019 00:18 16,2 C 15,0 C 14,4 C 82 % 1019,8 hPa 0,0 l/m 0 min 0 min 0 W/m 3,2 km/h (1 Bft) 100,00 %
20.08.2019 00:20 16,1 C 15,0 C 14,4 C 82 % 1019,8 hPa 0,0 l/m 0 min 0 min 0 W/m 6,4 km/h (2 Bft) 100,00 %
20.08.2019 00:22 16,1 C 15,0 C 14,4 C 82 % 1019,8 hPa 0,0 l/m 0 min 0 min 0 W/m 6,4 km/h (2 Bft) 100,00 %
20.08.2019 00:24 16,1 C 15,0 C 14,4 C 82 % 1019,9 hPa 0,0 l/m 0 min 0 min 0 W/m 9,7 km/h (2 Bft) 100,00 %
20.08.2019 00:26 16,1 C 15,0 C 15,0 C 82 % 1019,9 hPa 0,0 l/m 0 min 0 min 0 W/m 12,9 km/h (3 Bft) 100,00 %
20.08.2019 00:28 16,1 C 15,0 C 15,0 C 82 % 1019,9 hPa 0,0 l/m 0 min 0 min 0 W/m 6,4 km/h (2 Bft) 100,00 %
20.08.2019 00:30 16,0 C 15,0 C 15,0 C 82 % 1020,0 hPa 0,0 l/m 0 min 0 min 0 W/m 9,7 km/h (2 Bft) 100,00 %
20.08.2019 00:32 16,0 C 15,0 C 14,4 C 82 % 1020,0 hPa 0,0 l/m 0 min 0 min 0 W/m 6,4 km/h (2 Bft) 100,00 %
20.08.2019 00:34 16,0 C 15,0 C 14,4 C 82 % 1020,1 hPa 0,0 l/m 0 min 0 min 0 W/m 6,4 km/h (2 Bft) 100,00 %
20.08.2019 00:36 15,9 C 14,4 C 14,4 C 82 % 1020,1 hPa 0,0 l/m 0 min 0 min 0 W/m 3,2 km/h (1 Bft) 100,00 %
20.08.2019 00:38 15,9 C 14,4 C 14,4 C 82 % 1020,1 hPa 0,0 l/m 0 min 0 min 0 W/m 6,4 km/h (2 Bft) 100,00 %
20.08.2019 00:40 15,9 C 14,4 C 14,4 C 82 % 1020,1 hPa 0,0 l/m 0 min 0 min 0 W/m 6,4 km/h (2 Bft) 100,00 %
20.08.2019 00:42 15,9 C 14,4 C 14,4 C 82 % 1020,2 hPa 0,0 l/m 0 min 0 min 0 W/m 6,4 km/h (2 Bft) 100,00 %
20.08.2019 00:44 15,9 C 14,4 C 14,4 C 82 % 1020,2 hPa 0,0 l/m 0 min 0 min 0 W/m 6,4 km/h (2 Bft) 100,00 %
20.08.2019 00:46 15,9 C 14,4 C 14,4 C 82 % 1020,3 hPa 0,0 l/m 0 min 0 min 0 W/m 6,4 km/h (2 Bft) 100,00 %
20.08.2019 00:48 15,8 C 14,4 C 14,4 C 82 % 1020,3 hPa 0,0 l/m 0 min 0 min 0 W/m 3,2 km/h (1 Bft) 100,00 %
20.08.2019 00:50 15,8 C 14,4 C 14,4 C 82 % 1020,4 hPa 0,0 l/m 0 min 0 min 0 W/m 3,2 km/h (1 Bft) 100,00 %
20.08.2019 00:52 15,8 C 14,4 C 14,4 C 82 % 1020,3 hPa 0,0 l/m 0 min 0 min 0 W/m 3,2 km/h (1 Bft) 100,00 %
20.08.2019 00:54 15,8 C 14,4 C 14,4 C 82 % 1020,3 hPa 0,0 l/m 0 min 0 min 0 W/m 3,2 km/h (1 Bft) 100,00 %
20.08.2019 00:56 15,8 C 14,4 C 14,4 C 82 % 1020,3 hPa 0,0 l/m 0 min 0 min 0 W/m 6,4 km/h (2 Bft) 100,00 %
20.08.2019 00:58 15,8 C 14,4 C 14,4 C 82 % 1020,4 hPa 0,0 l/m 0 min 0 min 0 W/m 3,2 km/h (1 Bft) 100,00 %
20.08.2019 01:00 15,7 C 14,4 C 14,4 C 82 % 1020,5 hPa 0,0 l/m 0 min 0 min 0 W/m 6,4 km/h (2 Bft) 100,00 %
20.08.2019 01:02 15,7 C 14,4 C 14,4 C 82 % 1020,5 hPa 0,0 l/m 0 min 0 min 0 W/m 3,2 km/h (1 Bft) 100,00 %
20.08.2019 01:04 15,7 C 14,4 C 14,4 C 82 % 1020,5 hPa 0,0 l/m 0 min 0 min 0 W/m 3,2 km/h (1 Bft) 100,00 %
20.08.2019 01:06 15,7 C 14,4 C 14,4 C 82 % 1020,5 hPa 0,0 l/m 0 min 0 min 0 W/m 12,9 km/h (3 Bft) 97,87 %
20.08.2019 01:08 15,7 C 14,4 C 14,4 C 82 % 1020,5 hPa 0,0 l/m 0 min 0 min 0 W/m 3,2 km/h (1 Bft) 100,00 %
20.08.2019 01:10 15,7 C 14,4 C 14,4 C 82 % 1020,5 hPa 0,0 l/m 0 min 0 min 0 W/m 3,2 km/h (1 Bft) 100,00 %
20.08.2019 01:12 15,7 C 14,4 C 14,4 C 82 % 1020,5 hPa 0,0 l/m 0 min 0 min 0 W/m 6,4 km/h (2 Bft) 100,00 %
20.08.2019 01:14 15,7 C 14,4 C 14,4 C 82 % 1020,5 hPa 0,0 l/m 0 min 0 min 0 W/m 6,4 km/h (2 Bft) 100,00 %
20.08.2019 01:16 15,6 C 14,4 C 14,4 C 82 % 1020,6 hPa 0,0 l/m 0 min 0 min 0 W/m 6,4 km/h (2 Bft) 100,00 %
20.08.2019 01:18 15,6 C 14,4 C 14,4 C 82 % 1020,5 hPa 0,0 l/m 0 min 0 min 0 W/m 3,2 km/h (1 Bft) 97,87 %
20.08.2019 01:20 15,6 C 14,4 C 14,4 C 82 % 1020,5 hPa 0,0 l/m 0 min 0 min 0 W/m 6,4 km/h (2 Bft) 95,74 %
20.08.2019 01:22 15,6 C 14,4 C 14,4 C 82 % 1020,5 hPa 0,0 l/m 0 min 0 min 0 W/m 3,2 km/h (1 Bft) 97,83 %
20.08.2019 01:24 15,6 C 14,4 C 14,4 C 82 % 1020,6 hPa 0,0 l/m 0 min 0 min 0 W/m 3,2 km/h (1 Bft) 100,00 %
20.08.2019 01:26 15,6 C 14,4 C 14,4 C 82 % 1020,5 hPa 0,0 l/m 0 min 0 min 0 W/m 3,2 km/h (1 Bft) 97,87 %
20.08.2019 01:28 15,6 C 14,4 C 14,4 C 83 % 1020,6 hPa 0,0 l/m 0 min 0 min 0 W/m 3,2 km/h (1 Bft) 93,62 %
20.08.2019 01:30 15,5 C 14,4 C 14,4 C 83 % 1020,7 hPa 0,0 l/m 0 min 0 min 0 W/m 3,2 km/h (1 Bft) 95,74 %
20.08.2019 01:32 15,5 C 14,4 C 13,9 C 83 % 1020,7 hPa 0,0 l/m 0 min 0 min 0 W/m 6,4 km/h (2 Bft) 93,62 %
20.08.2019 01:34 15,5 C 14,4 C 13,9 C 83 % 1020,7 hPa 0,0 l/m 0 min 0 min 0 W/m 9,7 km/h (2 Bft) 95,65 %
20.08.2019 01:36 15,5 C 14,4 C 14,4 C 83 % 1020,7 hPa 0,0 l/m 0 min 0 min 0 W/m 6,4 km/h (2 Bft) 95,74 %
20.08.2019 01:38 15,4 C 14,4 C 14,4 C 83 % 1020,7 hPa 0,0 l/m 0 min 0 min 0 W/m 6,4 km/h (2 Bft) 95,74 %
20.08.2019 01:40 15,4 C 14,4 C 14,4 C 83 % 1020,8 hPa 0,0 l/m 0 min 0 min 0 W/m 3,2 km/h (1 Bft) 95,74 %
20.08.2019 01:42 15,4 C 14,4 C 13,9 C 83 % 1020,9 hPa 0,0 l/m 0 min 0 min 0 W/m 3,2 km/h (1 Bft) 95,74 %
20.08.2019 01:44 15,4 C 14,4 C 13,9 C 83 % 1020,9 hPa 0,0 l/m 0 min 0 min 0 W/m 6,4 km/h (2 Bft) 95,74 %
20.08.2019 01:46 15,4 C 13,9 C 13,9 C 83 % 1021,0 hPa 0,0 l/m 0 min 0 min 0 W/m 6,4 km/h (2 Bft) 95,65 %
20.08.2019 01:48 15,4 C 13,9 C 13,9 C 83 % 1021,0 hPa 0,0 l/m 0 min 0 min 0 W/m 3,2 km/h (1 Bft) 93,62 %
20.08.2019 01:50 15,4 C 13,9 C 13,9 C 83 % 1020,9 hPa 0,0 l/m 0 min 0 min 0 W/m 6,4 km/h (2 Bft) 95,74 %
20.08.2019 01:52 15,3 C 13,9 C 13,9 C 83 % 1020,9 hPa 0,0 l/m 0 min 0 min 0 W/m 6,4 km/h (2 Bft) 95,74 %
20.08.2019 01:54 15,3 C 13,9 C 13,9 C 83 % 1020,9 hPa 0,0 l/m 0 min 0 min 0 W/m 6,4 km/h (2 Bft) 95,74 %
20.08.2019 01:56 15,3 C 13,9 C 13,9 C 83 % 1021,0 hPa 0,0 l/m 0 min 0 min 0 W/m 9,7 km/h (2 Bft) 95,74 %
20.08.2019 01:58 15,3 C 13,9 C 13,9 C 83 % 1020,9 hPa 0,0 l/m 0 min 0 min 0 W/m 9,7 km/h (2 Bft) 93,48 %
20.08.2019 02:00 15,2 C 13,9 C 13,9 C 83 % 1021,0 hPa 0,0 l/m 0 min 0 min 0 W/m 6,4 km/h (2 Bft) 95,74 %
20.08.2019 02:02 15,2 C 13,9 C 13,9 C 83 % 1021,0 hPa 0,0 l/m 0 min 0 min 0 W/m 6,4 km/h (2 Bft) 95,74 %
20.08.2019 02:04 15,2 C 13,9 C 13,9 C 83 % 1021,0 hPa 0,0 l/m 0 min 0 min 0 W/m 6,4 km/h (2 Bft) 95,74 %
20.08.2019 02:06 15,2 C 13,9 C 13,9 C 83 % 1020,9 hPa 0,0 l/m 0 min 0 min 0 W/m 3,2 km/h (1 Bft) 91,49 %
20.08.2019 02:08 15,1 C 13,9 C 13,9 C 83 % 1021,0 hPa 0,0 l/m 0 min 0 min 0 W/m 6,4 km/h (2 Bft) 95,74 %
20.08.2019 02:10 15,1 C 13,9 C 13,9 C 83 % 1021,0 hPa 0,0 l/m 0 min 0 min 0 W/m 3,2 km/h (1 Bft) 93,48 %
20.08.2019 02:12 15,1 C 13,3 C 13,3 C 83 % 1021,0 hPa 0,0 l/m 0 min 0 min 0 W/m 3,2 km/h (1 Bft) 95,74 %
20.08.2019 02:14 15,1 C 13,3 C 13,3 C 83 % 1021,0 hPa 0,0 l/m 0 min 0 min 0 W/m 3,2 km/h (1 Bft) 95,74 %
20.08.2019 02:16 15,0 C 13,3 C 13,3 C 83 % 1021,0 hPa 0,0 l/m 0 min 0 min 0 W/m 6,4 km/h (2 Bft) 93,62 %
20.08.2019 02:18 14,9 C 13,3 C 13,3 C 83 % 1021,0 hPa 0,0 l/m 0 min 0 min 0 W/m 3,2 km/h (1 Bft) 97,87 %
20.08.2019 02:20 14,9 C 13,3 C 13,3 C 83 % 1021,0 hPa 0,0 l/m 0 min 0 min 0 W/m 9,7 km/h (2 Bft) 97,83 %
20.08.2019 02:22 14,9 C 13,3 C 13,3 C 83 % 1021,0 hPa 0,0 l/m 0 min 0 min 0 W/m 6,4 km/h (2 Bft) 97,87 %
20.08.2019 02:24 14,9 C 13,3 C 13,3 C 83 % 1021,1 hPa 0,0 l/m 0 min 0 min 0 W/m 6,4 km/h (2 Bft) 95,74 %
20.08.2019 02:26 14,8 C 13,3 C 13,3 C 83 % 1021,0 hPa 0,0 l/m 0 min 0 min 0 W/m 6,4 km/h (2 Bft) 97,87 %
20.08.2019 02:28 14,8 C 13,3 C 13,3 C 83 % 1021,1 hPa 0,0 l/m 0 min 0 min 0 W/m 3,2 km/h (1 Bft) 97,87 %
20.08.2019 02:30 14,8 C 13,3 C 12,8 C 83 % 1021,1 hPa 0,0 l/m 0 min 0 min 0 W/m 3,2 km/h (1 Bft) 95,74 %
20.08.2019 02:32 14,7 C 13,3 C 12,8 C 83 % 1021,0 hPa 0,0 l/m 0 min 0 min 0 W/m 3,2 km/h (1 Bft) 97,83 %
20.08.2019 02:34 14,7 C 13,3 C 12,8 C 83 % 1021,0 hPa 0,0 l/m 0 min 0 min 0 W/m 6,4 km/h (2 Bft) 95,74 %
20.08.2019 02:36 14,7 C 13,3 C 12,8 C 83 % 1021,0 hPa 0,0 l/m 0 min 0 min 0 W/m 3,2 km/h (1 Bft) 97,87 %
20.08.2019 02:38 14,7 C 13,3 C 13,3 C 83 % 1021,1 hPa 0,0 l/m 0 min 0 min 0 W/m 3,2 km/h (1 Bft) 97,87 %
20.08.2019 02:40 14,6 C 13,3 C 13,3 C 83 % 1021,0 hPa 0,0 l/m 0 min 0 min 0 W/m 3,2 km/h (1 Bft) 97,87 %
20.08.2019 02:42 14,6 C 13,3 C 12,8 C 83 % 1021,0 hPa 0,0 l/m 0 min 0 min 0 W/m 3,2 km/h (1 Bft) 95,74 %
20.08.2019 02:44 14,6 C 13,3 C 12,8 C 83 % 1021,0 hPa 0,0 l/m 0 min 0 min 0 W/m 0,0 km/h (0 Bft) 97,83 %
20.08.2019 02:46 14,5 C 13,3 C 12,8 C 83 % 1021,0 hPa 0,0 l/m 0 min 0 min 0 W/m 0,0 km/h (0 Bft) 95,74 %
20.08.2019 02:48 14,5 C 13,3 C 12,8 C 83 % 1021,0 hPa 0,0 l/m 0 min 0 min 0 W/m 3,2 km/h (1 Bft) 97,87 %
20.08.2019 02:50 14,4 C 12,8 C 12,8 C 83 % 1021,0 hPa 0,0 l/m 0 min 0 min 0 W/m 3,2 km/h (1 Bft) 97,87 %
20.08.2019 02:52 14,4 C 12,8 C 12,8 C 83 % 1021,0 hPa 0,0 l/m 0 min 0 min 0 W/m 3,2 km/h (1 Bft) 95,74 %
20.08.2019 02:54 14,4 C 12,8 C 12,8 C 83 % 1021,0 hPa 0,0 l/m 0 min 0 min 0 W/m 3,2 km/h (1 Bft) 97,87 %
20.08.2019 02:56 14,4 C 12,8 C 12,8 C 84 % 1021,0 hPa 0,0 l/m 0 min 0 min 0 W/m 6,4 km/h (2 Bft) 97,83 %
20.08.2019 02:58 14,3 C 13,3 C 12,8 C 84 % 1021,0 hPa 0,0 l/m 0 min 0 min 0 W/m 3,2 km/h (1 Bft) 97,87 %
20.08.2019 03:00 14,3 C 13,3 C 12,8 C 84 % 1021,0 hPa 0,0 l/m 0 min 0 min 0 W/m 3,2 km/h (1 Bft) 97,87 %
20.08.2019 03:02 14,3 C 12,8 C 12,8 C 84 % 1021,0 hPa 0,0 l/m 0 min 0 min 0 W/m 6,4 km/h (2 Bft) 97,87 %
20.08.2019 03:04 14,3 C 12,8 C 12,8 C 84 % 1021,0 hPa 0,0 l/m 0 min 0 min 0 W/m 3,2 km/h (1 Bft) 97,87 %
20.08.2019 03:06 14,2 C 12,8 C 12,8 C 84 % 1021,1 hPa 0,0 l/m 0 min 0 min 0 W/m 3,2 km/h (1 Bft) 97,87 %
20.08.2019 03:08 14,2 C 12,8 C 12,8 C 84 % 1021,1 hPa 0,0 l/m 0 min 0 min 0 W/m 3,2 km/h (1 Bft) 97,83 %
20.08.2019 03:10 14,2 C 12,8 C 12,8 C 84 % 1021,1 hPa 0,0 l/m 0 min 0 min 0 W/m 6,4 km/h (2 Bft) 97,87 %
20.08.2019 03:12 14,2 C 12,8 C 12,8 C 84 % 1021,1 hPa 0,0 l/m 0 min 0 min 0 W/m 3,2 km/h (1 Bft) 97,87 %
20.08.2019 03:14 14,2 C 12,8 C 12,8 C 84 % 1021,1 hPa 0,0 l/m 0 min 0 min 0 W/m 3,2 km/h (1 Bft) 97,87 %
20.08.2019 03:16 14,2 C 12,8 C 12,8 C 84 % 1021,1 hPa 0,0 l/m 0 min 0 min 0 W/m 3,2 km/h (1 Bft) 97,87 %
20.08.2019 03:18 14,2 C 12,8 C 12,8 C 84 % 1021,2 hPa 0,0 l/m 0 min 0 min 0 W/m 3,2 km/h (1 Bft) 97,87 %
20.08.2019 03:20 14,2 C 12,8 C 12,8 C 84 % 1021,2 hPa 0,0 l/m 0 min 0 min 0 W/m 3,2 km/h (1 Bft) 97,83 %
20.08.2019 03:22 14,2 C 12,8 C 12,8 C 84 % 1021,1 hPa 0,0 l/m 0 min 0 min 0 W/m 3,2 km/h (1 Bft) 97,87 %
20.08.2019 03:24 14,2 C 12,8 C 12,8 C 84 % 1021,1 hPa 0,0 l/m 0 min 0 min 0 W/m 9,7 km/h (2 Bft) 97,87 %
20.08.2019 03:26 14,2 C 12,8 C 12,8 C 84 % 1021,2 hPa 0,0 l/m 0 min 0 min 0 W/m 6,4 km/h (2 Bft) 93,62 %
20.08.2019 03:28 14,1 C 12,8 C 12,8 C 84 % 1021,3 hPa 0,0 l/m 0 min 0 min 0 W/m 6,4 km/h (2 Bft) 97,87 %
20.08.2019 03:30 14,1 C 12,8 C 12,8 C 84 % 1021,3 hPa 0,0 l/m 0 min 0 min 0 W/m 6,4 km/h (2 Bft) 100,00 %
20.08.2019 03:32 14,0 C 12,8 C 12,8 C 84 % 1021,3 hPa 0,0 l/m 0 min 0 min 0 W/m 3,2 km/h (1 Bft) 97,83 %
20.08.2019 03:34 14,0 C 12,8 C 12,8 C 84 % 1021,3 hPa 0,0 l/m 0 min 0 min 0 W/m 3,2 km/h (1 Bft) 100,00 %
20.08.2019 03:36 14,0 C 12,8 C 12,8 C 84 % 1021,3 hPa 0,0 l/m 0 min 0 min 0 W/m 6,4 km/h (2 Bft) 100,00 %
20.08.2019 03:38 13,9 C 12,8 C 12,2 C 84 % 1021,4 hPa 0,0 l/m 0 min 0 min 0 W/m 3,2 km/h (1 Bft) 100,00 %
20.08.2019 03:40 13,9 C 12,8 C 12,2 C 84 % 1021,4 hPa 0,0 l/m 0 min 0 min 0 W/m 0,0 km/h (0 Bft) 100,00 %
20.08.2019 03:42 13,9 C 12,8 C 12,2 C 84 % 1021,5 hPa 0,0 l/m 0 min 0 min 0 W/m 0,0 km/h (0 Bft) 95,65 %
20.08.2019 03:44 13,9 C 12,8 C 12,2 C 84 % 1021,4 hPa 0,0 l/m 0 min 0 min 0 W/m 9,7 km/h (2 Bft) 97,87 %
20.08.2019 03:46 13,8 C 12,8 C 12,2 C 84 % 1021,4 hPa 0,0 l/m 0 min 0 min 0 W/m 3,2 km/h (1 Bft) 97,87 %
20.08.2019 03:48 13,8 C 12,8 C 12,8 C 84 % 1021,4 hPa 0,0 l/m 0 min 0 min 0 W/m 0,0 km/h (0 Bft) 97,87 %
20.08.2019 03:50 13,8 C 12,2 C 12,2 C 84 % 1021,5 hPa 0,0 l/m 0 min 0 min 0 W/m 3,2 km/h (1 Bft) 95,74 %
20.08.2019 03:52 13,8 C 12,2 C 12,2 C 84 % 1021,5 hPa 0,0 l/m 0 min 0 min 0 W/m 3,2 km/h (1 Bft) 100,00 %
20.08.2019 03:54 13,8 C 12,8 C 12,2 C 84 % 1021,5 hPa 0,0 l/m 0 min 0 min 0 W/m 6,4 km/h (2 Bft) 97,83 %
20.08.2019 03:56 13,7 C 12,8 C 12,2 C 84 % 1021,5 hPa 0,0 l/m 0 min 0 min 0 W/m 3,2 km/h (1 Bft) 93,62 %
20.08.2019 03:58 13,7 C 12,8 C 12,2 C 84 % 1021,5 hPa 0,0 l/m 0 min 0 min 0 W/m 3,2 km/h (1 Bft) 95,74 %
20.08.2019 04:00 13,7 C 12,8 C 12,2 C 84 % 1021,6 hPa 0,0 l/m 0 min 0 min 0 W/m 3,2 km/h (1 Bft) 97,87 %
20.08.2019 04:02 13,7 C 12,2 C 12,2 C 84 % 1021,5 hPa 0,0 l/m 0 min 0 min 0 W/m 3,2 km/h (1 Bft) 100,00 %
20.08.2019 04:06 13,7 C 12,2 C 12,2 C 84 % 1021,6 hPa 0,0 l/m 0 min 0 min 0 W/m 6,4 km/h (2 Bft) 97,85 %
20.08.2019 04:08 13,6 C 12,2 C 12,2 C 84 % 1021,5 hPa 0,0 l/m 0 min 0 min 0 W/m 3,2 km/h (1 Bft) 97,87 %
20.08.2019 04:10 13,6 C 12,2 C 12,2 C 84 % 1021,5 hPa 0,0 l/m 0 min 0 min 0 W/m 6,4 km/h (2 Bft) 97,87 %
20.08.2019 04:12 13,6 C 12,2 C 12,2 C 84 % 1021,6 hPa 0,0 l/m 0 min 0 min 0 W/m 6,4 km/h (2 Bft) 97,87 %
20.08.2019 04:14 13,6 C 12,8 C 12,2 C 84 % 1021,6 hPa 0,0 l/m 0 min 0 min 0 W/m 9,7 km/h (2 Bft) 95,74 %
20.08.2019 04:16 13,6 C 12,8 C 12,2 C 85 % 1021,6 hPa 0,0 l/m 0 min 0 min 0 W/m 6,4 km/h (2 Bft) 97,87 %
20.08.2019 04:18 13,5 C 12,8 C 12,2 C 85 % 1021,6 hPa 0,0 l/m 0 min 0 min 0 W/m 6,4 km/h (2 Bft) 97,83 %
20.08.2019 04:20 13,5 C 12,8 C 12,2 C 85 % 1021,6 hPa 0,0 l/m 0 min 0 min 0 W/m 3,2 km/h (1 Bft) 97,87 %
20.08.2019 04:22 13,5 C 12,8 C 12,2 C 85 % 1021,7 hPa 0,0 l/m 0 min 0 min 0 W/m 6,4 km/h (2 Bft) 97,87 %
20.08.2019 04:24 13,5 C 12,8 C 12,2 C 85 % 1021,7 hPa 0,0 l/m 0 min 0 min 0 W/m 6,4 km/h (2 Bft) 93,62 %
20.08.2019 04:26 13,4 C 12,2 C 12,2 C 85 % 1021,6 hPa 0,0 l/m 0 min 0 min 0 W/m 6,4 km/h (2 Bft) 95,74 %
20.08.2019 04:28 13,4 C 12,2 C 12,2 C 85 % 1021,7 hPa 0,0 l/m 0 min 0 min 0 W/m 6,4 km/h (2 Bft) 93,62 %
20.08.2019 04:30 13,4 C 12,2 C 12,2 C 85 % 1021,7 hPa 0,0 l/m 0 min 0 min 0 W/m 6,4 km/h (2 Bft) 95,65 %
20.08.2019 04:32 13,4 C 12,2 C 12,2 C 85 % 1021,8 hPa 0,0 l/m 0 min 0 min 0 W/m 3,2 km/h (1 Bft) 95,74 %
20.08.2019 04:34 13,4 C 12,2 C 12,2 C 85 % 1021,8 hPa 0,0 l/m 0 min 0 min 0 W/m 3,2 km/h (1 Bft) 93,62 %
20.08.2019 04:36 13,4 C 12,2 C 12,2 C 85 % 1021,8 hPa 0,0 l/m 0 min 0 min 0 W/m 0,0 km/h (0 Bft) 95,74 %
20.08.2019 04:38 13,4 C 12,2 C 12,2 C 85 % 1021,8 hPa 0,0 l/m 0 min 0 min 0 W/m 0,0 km/h (0 Bft) 95,74 %
20.08.2019 04:40 13,4 C 12,2 C 11,7 C 85 % 1021,8 hPa 0,0 l/m 0 min 0 min 0 W/m 0,0 km/h (0 Bft) 97,83 %
20.08.2019 04:42 13,4 C 12,2 C 11,7 C 85 % 1021,8 hPa 0,0 l/m 0 min 0 min 0 W/m 3,2 km/h (1 Bft) 93,62 %
20.08.2019 04:44 13,4 C 12,2 C 11,7 C 85 % 1021,8 hPa 0,0 l/m 0 min 0 min 0 W/m 6,4 km/h (2 Bft) 97,87 %
20.08.2019 04:46 13,3 C 12,2 C 11,7 C 85 % 1021,9 hPa 0,0 l/m 0 min 0 min 0 W/m 3,2 km/h (1 Bft) 97,87 %
20.08.2019 04:48 13,3 C 12,2 C 11,7 C 85 % 1021,8 hPa 0,0 l/m 0 min 0 min 0 W/m 3,2 km/h (1 Bft) 97,87 %
20.08.2019 04:50 13,3 C 12,2 C 11,7 C 86 % 1021,8 hPa 0,0 l/m 0 min 0 min 0 W/m 3,2 km/h (1 Bft) 97,87 %
20.08.2019 04:52 13,3 C 12,2 C 11,7 C 86 % 1021,8 hPa 0,0 l/m 0 min 0 min 0 W/m 3,2 km/h (1 Bft) 97,83 %
20.08.2019 04:54 13,3 C 12,2 C 11,7 C 86 % 1021,9 hPa 0,0 l/m 0 min 0 min 0 W/m 3,2 km/h (1 Bft) 97,87 %
20.08.2019 04:56 13,3 C 12,2 C 11,7 C 86 % 1021,8 hPa 0,0 l/m 0 min 0 min 0 W/m 3,2 km/h (1 Bft) 97,87 %
20.08.2019 04:58 13,2 C 12,2 C 11,7 C 86 % 1021,8 hPa 0,0 l/m 0 min 0 min 0 W/m 6,4 km/h (2 Bft) 97,87 %
20.08.2019 05:00 13,2 C 12,2 C 11,7 C 86 % 1021,8 hPa 0,0 l/m 0 min 0 min 0 W/m 3,2 km/h (1 Bft) 93,62 %
20.08.2019 05:02 13,2 C 11,7 C 11,7 C 86 % 1021,8 hPa 0,0 l/m 0 min 0 min 0 W/m 3,2 km/h (1 Bft) 97,87 %
20.08.2019 05:04 13,2 C 11,7 C 11,7 C 86 % 1021,9 hPa 0,0 l/m 0 min 0 min 0 W/m 6,4 km/h (2 Bft) 95,65 %
20.08.2019 05:06 13,2 C 11,7 C 11,7 C 86 % 1021,8 hPa 0,0 l/m 0 min 0 min 0 W/m 6,4 km/h (2 Bft) 97,87 %
20.08.2019 05:08 13,1 C 11,7 C 11,7 C 86 % 1021,8 hPa 0,0 l/m 0 min 0 min 0 W/m 3,2 km/h (1 Bft) 97,87 %
20.08.2019 05:10 13,1 C 11,7 C 11,7 C 86 % 1021,8 hPa 0,0 l/m 0 min 0 min 0 W/m 3,2 km/h (1 Bft) 97,87 %
20.08.2019 05:12 13,1 C 11,7 C 11,7 C 86 % 1021,8 hPa 0,0 l/m 0 min 0 min 0 W/m 6,4 km/h (2 Bft) 97,87 %
20.08.2019 05:14 13,1 C 11,7 C 11,7 C 86 % 1021,8 hPa 0,0 l/m 0 min 0 min 0 W/m 6,4 km/h (2 Bft) 100,00 %
20.08.2019 05:16 13,1 C 12,2 C 11,7 C 86 % 1021,8 hPa 0,0 l/m 0 min 0 min 0 W/m 9,7 km/h (2 Bft) 97,83 %
20.08.2019 05:18 13,1 C 12,2 C 11,7 C 87 % 1021,8 hPa 0,0 l/m 0 min 0 min 0 W/m 9,7 km/h (2 Bft) 97,87 %
20.08.2019 05:20 13,0 C 12,2 C 11,7 C 87 % 1021,8 hPa 0,0 l/m 0 min 0 min 0 W/m 6,4 km/h (2 Bft) 100,00 %
20.08.2019 05:22 13,0 C 12,2 C 11,7 C 87 % 1021,8 hPa 0,0 l/m 0 min 0 min 0 W/m 6,4 km/h (2 Bft) 100,00 %
20.08.2019 05:24 13,0 C 12,2 C 11,7 C 87 % 1021,7 hPa 0,0 l/m 0 min 0 min 0 W/m 9,7 km/h (2 Bft) 95,74 %
20.08.2019 05:26 13,0 C 12,2 C 11,7 C 87 % 1021,7 hPa 0,0 l/m 0 min 0 min 0 W/m 9,7 km/h (2 Bft) 100,00 %
20.08.2019 05:28 12,9 C 12,2 C 11,7 C 87 % 1021,8 hPa 0,0 l/m 0 min 0 min 0 W/m 6,4 km/h (2 Bft) 100,00 %
20.08.2019 05:30 12,9 C 12,2 C 11,7 C 87 % 1021,8 hPa 0,0 l/m 0 min 0 min 0 W/m 6,4 km/h (2 Bft) 100,00 %
20.08.2019 05:32 12,9 C 12,2 C 11,7 C 87 % 1021,8 hPa 0,0 l/m 0 min 0 min 0 W/m 9,7 km/h (2 Bft) 100,00 %
20.08.2019 05:34 12,9 C 11,7 C 11,7 C 87 % 1021,7 hPa 0,0 l/m 0 min 0 min 0 W/m 6,4 km/h (2 Bft) 100,00 %
20.08.2019 05:36 12,9 C 11,7 C 11,7 C 87 % 1021,8 hPa 0,0 l/m 0 min 0 min 0 W/m 6,4 km/h (2 Bft) 100,00 %
20.08.2019 05:38 12,9 C 11,7 C 11,7 C 87 % 1021,8 hPa 0,0 l/m 0 min 0 min 0 W/m 6,4 km/h (2 Bft) 97,83 %
20.08.2019 05:40 12,9 C 11,7 C 11,7 C 87 % 1021,7 hPa 0,0 l/m 0 min 0 min 0 W/m 6,4 km/h (2 Bft) 100,00 %
20.08.2019 05:42 12,9 C 11,7 C 11,7 C 87 % 1021,8 hPa 0,0 l/m 0 min 0 min 0 W/m 6,4 km/h (2 Bft) 100,00 %
20.08.2019 05:44 12,9 C 11,7 C 11,7 C 87 % 1021,7 hPa 0,0 l/m 0 min 0 min 0 W/m 3,2 km/h (1 Bft) 100,00 %
20.08.2019 05:46 12,8 C 11,7 C 11,7 C 87 % 1021,7 hPa 0,0 l/m 0 min 0 min 0 W/m 0,0 km/h (0 Bft) 100,00 %
20.08.2019 05:48 12,8 C 11,7 C 11,7 C 88 % 1021,7 hPa 0,0 l/m 0 min 0 min 0 W/m 3,2 km/h (1 Bft) 97,87 %
20.08.2019 05:50 12,8 C 11,7 C 11,7 C 88 % 1021,7 hPa 0,0 l/m 0 min 0 min 0 W/m 3,2 km/h (1 Bft) 100,00 %
20.08.2019 05:52 12,8 C 11,7 C 11,1 C 88 % 1021,8 hPa 0,0 l/m 0 min 0 min 0 W/m 6,4 km/h (2 Bft) 100,00 %
20.08.2019 05:54 12,8 C 11,7 C 11,7 C 88 % 1021,8 hPa 0,0 l/m 0 min 0 min 0 W/m 3,2 km/h (1 Bft) 97,87 %
20.08.2019 05:56 12,8 C 11,7 C 11,7 C 88 % 1021,8 hPa 0,0 l/m 0 min 0 min 0 W/m 9,7 km/h (2 Bft) 100,00 %
20.08.2019 05:58 12,8 C 11,7 C 11,7 C 88 % 1021,8 hPa 0,0 l/m 0 min 0 min 0 W/m 6,4 km/h (2 Bft) 100,00 %
20.08.2019 06:00 12,8 C 11,7 C 11,7 C 88 % 1021,8 hPa 0,0 l/m 0 min 0 min 0 W/m 6,4 km/h (2 Bft) 100,00 %
20.08.2019 06:02 12,7 C 11,7 C 11,7 C 88 % 1021,8 hPa 0,0 l/m 0 min 0 min 0 W/m 6,4 km/h (2 Bft) 100,00 %
20.08.2019 06:04 12,7 C 11,7 C 11,7 C 88 % 1021,9 hPa 0,0 l/m 0 min 0 min 0 W/m 6,4 km/h (2 Bft) 100,00 %
20.08.2019 06:08 12,7 C 11,7 C 11,7 C 88 % 1022,0 hPa 0,0 l/m 0 min 0 min 0 W/m 6,4 km/h (2 Bft) 100,00 %
20.08.2019 06:10 12,7 C 11,7 C 11,7 C 88 % 1021,9 hPa 0,0 l/m 0 min 0 min 0 W/m 6,4 km/h (2 Bft) 97,87 %
20.08.2019 06:12 12,7 C 11,7 C 11,7 C 88 % 1022,0 hPa 0,0 l/m 0 min 0 min 0 W/m 9,7 km/h (2 Bft) 100,00 %
20.08.2019 06:14 12,7 C 11,7 C 11,7 C 88 % 1022,0 hPa 0,0 l/m 0 min 0 min 0 W/m 6,4 km/h (2 Bft) 97,83 %
20.08.2019 06:16 12,6 C 11,7 C 11,7 C 88 % 1022,0 hPa 0,0 l/m 0 min 0 min 0 W/m 9,7 km/h (2 Bft) 100,00 %
20.08.2019 06:18 12,6 C 11,7 C 11,7 C 88 % 1022,0 hPa 0,0 l/m 0 min 0 min 0 W/m 6,4 km/h (2 Bft) 100,00 %
20.08.2019 06:20 12,6 C 11,7 C 11,7 C 88 % 1022,0 hPa 0,0 l/m 0 min 0 min 0 W/m 6,4 km/h (2 Bft) 100,00 %
20.08.2019 06:22 12,6 C 11,7 C 11,7 C 88 % 1022,1 hPa 0,0 l/m 0 min 0 min 0 W/m 6,4 km/h (2 Bft) 95,74 %
20.08.2019 06:24 12,6 C 11,7 C 11,7 C 88 % 1022,1 hPa 0,0 l/m 0 min 0 min 0 W/m 9,7 km/h (2 Bft) 93,62 %
20.08.2019 06:26 12,6 C 11,7 C 11,7 C 88 % 1022,1 hPa 0,0 l/m 0 min 0 min 0 W/m 6,4 km/h (2 Bft) 97,83 %
20.08.2019 06:28 12,6 C 11,7 C 11,7 C 88 % 1022,1 hPa 0,0 l/m 0 min 0 min 0 W/m 6,4 km/h (2 Bft) 95,74 %
20.08.2019 06:30 12,6 C 11,7 C 11,7 C 89 % 1022,2 hPa 0,0 l/m 0 min 0 min 0 W/m 9,7 km/h (2 Bft) 95,74 %
20.08.2019 06:32 12,5 C 11,7 C 11,7 C 89 % 1022,2 hPa 0,0 l/m 0 min 0 min 4 W/m 12,9 km/h (3 Bft) 93,62 %
20.08.2019 06:34 12,5 C 11,7 C 11,7 C 89 % 1022,2 hPa 0,0 l/m 0 min 0 min 5 W/m 9,7 km/h (2 Bft) 95,74 %
20.08.2019 06:36 12,5 C 11,7 C 11,7 C 89 % 1022,3 hPa 0,0 l/m 0 min 0 min 6 W/m 9,7 km/h (2 Bft) 95,74 %
20.08.2019 06:38 12,5 C 11,7 C 11,7 C 89 % 1022,4 hPa 0,0 l/m 0 min 0 min 7 W/m 6,4 km/h (2 Bft) 95,65 %
20.08.2019 06:40 12,5 C 11,7 C 11,7 C 89 % 1021,0 hPa 0,0 l/m 0 min 0 min 9 W/m 9,7 km/h (2 Bft) 98,25 %
20.08.2019 06:42 12,5 C 11,7 C 11,7 C 89 % 1021,0 hPa 0,0 l/m 0 min 0 min 10 W/m 9,7 km/h (2 Bft) 94,44 %
20.08.2019 06:44 12,4 C 11,7 C 11,7 C 89 % 1021,1 hPa 0,0 l/m 0 min 0 min 11 W/m 6,4 km/h (2 Bft) 96,43 %
20.08.2019 06:46 12,4 C 11,7 C 11,7 C 89 % 1021,1 hPa 0,0 l/m 0 min 0 min 12 W/m 9,7 km/h (2 Bft) 95,74 %
20.08.2019 06:48 12,4 C 11,7 C 11,7 C 89 % 1021,1 hPa 0,0 l/m 0 min 0 min 14 W/m 6,4 km/h (2 Bft) 93,62 %
20.08.2019 06:50 12,4 C 11,7 C 11,7 C 89 % 1021,0 hPa 0,0 l/m 0 min 0 min 16 W/m 9,7 km/h (2 Bft) 95,74 %
20.08.2019 06:52 12,4 C 11,7 C 11,7 C 89 % 1021,0 hPa 0,0 l/m 0 min 0 min 16 W/m 6,4 km/h (2 Bft) 94,74 %
20.08.2019 06:54 12,4 C 11,7 C 11,7 C 89 % 1021,2 hPa 0,0 l/m 0 min 0 min 18 W/m 9,7 km/h (2 Bft) 95,74 %
20.08.2019 06:56 12,4 C 11,7 C 11,7 C 89 % 1021,2 hPa 0,0 l/m 0 min 0 min 18 W/m 6,4 km/h (2 Bft) 97,87 %
20.08.2019 06:58 12,4 C 11,7 C 11,7 C 89 % 1021,2 hPa 0,0 l/m 0 min 0 min 18 W/m 9,7 km/h (2 Bft) 95,74 %
20.08.2019 07:00 12,4 C 11,7 C 11,7 C 89 % 1021,1 hPa 0,0 l/m 0 min 0 min 18 W/m 9,7 km/h (2 Bft) 93,48 %
20.08.2019 07:02 12,4 C 11,7 C 11,7 C 89 % 1021,2 hPa 0,0 l/m 0 min 0 min 19 W/m 12,9 km/h (3 Bft) 94,64 %
20.08.2019 07:04 12,4 C 11,7 C 11,7 C 89 % 1021,2 hPa 0,0 l/m 0 min 0 min 19 W/m 3,2 km/h (1 Bft) 97,37 %
20.08.2019 07:06 12,4 C 11,7 C 11,7 C 89 % 1021,2 hPa 0,0 l/m 0 min 0 min 19 W/m 6,4 km/h (2 Bft) 93,48 %
20.08.2019 07:08 12,4 C 11,7 C 11,7 C 90 % 1021,2 hPa 0,0 l/m 0 min 0 min 19 W/m 3,2 km/h (1 Bft) 95,74 %
20.08.2019 07:10 12,4 C 11,7 C 11,7 C 90 % 1021,2 hPa 0,0 l/m 0 min 0 min 21 W/m 6,4 km/h (2 Bft) 93,75 %
20.08.2019 07:12 12,4 C 11,7 C 11,7 C 90 % 1021,2 hPa 0,0 l/m 0 min 0 min 23 W/m 3,2 km/h (1 Bft) 95,65 %
20.08.2019 07:14 12,4 C 11,7 C 11,7 C 90 % 1021,3 hPa 0,0 l/m 0 min 0 min 23 W/m 3,2 km/h (1 Bft) 93,62 %
20.08.2019 07:16 12,4 C 11,7 C 11,7 C 90 % 1021,3 hPa 0,0 l/m 0 min 0 min 23 W/m 3,2 km/h (1 Bft) 95,74 %
20.08.2019 07:18 12,4 C 12,2 C 11,7 C 90 % 1021,3 hPa 0,0 l/m 0 min 0 min 23 W/m 6,4 km/h (2 Bft) 93,62 %
20.08.2019 07:20 12,4 C 12,2 C 11,7 C 90 % 1021,3 hPa 0,0 l/m 0 min 0 min 24 W/m 9,7 km/h (2 Bft) 96,36 %
20.08.2019 07:22 12,4 C 12,2 C 11,7 C 90 % 1021,4 hPa 0,0 l/m 0 min 0 min 25 W/m 6,4 km/h (2 Bft) 97,87 %
20.08.2019 07:24 12,4 C 12,2 C 11,7 C 90 % 1021,4 hPa 0,0 l/m 0 min 0 min 26 W/m 3,2 km/h (1 Bft) 97,87 %
20.08.2019 07:26 12,4 C 12,2 C 11,7 C 90 % 1021,5 hPa 0,0 l/m 0 min 0 min 27 W/m 3,2 km/h (1 Bft) 97,83 %
20.08.2019 07:28 12,4 C 12,2 C 11,7 C 90 % 1021,5 hPa 0,0 l/m 0 min 0 min 28 W/m 6,4 km/h (2 Bft) 97,87 %
20.08.2019 07:30 12,4 C 12,2 C 11,7 C 90 % 1021,6 hPa 0,0 l/m 0 min 0 min 29 W/m 6,4 km/h (2 Bft) 97,37 %
20.08.2019 07:32 12,4 C 12,2 C 11,7 C 90 % 1021,7 hPa 0,0 l/m 0 min 0 min 30 W/m 6,4 km/h (2 Bft) 97,87 %
20.08.2019 07:34 12,5 C 12,2 C 11,7 C 90 % 1021,7 hPa 0,0 l/m 0 min 0 min 31 W/m 9,7 km/h (2 Bft) 95,74 %
20.08.2019 07:36 12,5 C 12,2 C 11,7 C 90 % 1021,7 hPa 0,0 l/m 0 min 0 min 32 W/m 6,4 km/h (2 Bft) 91,49 %
20.08.2019 07:38 12,5 C 12,2 C 11,7 C 90 % 1021,7 hPa 0,0 l/m 0 min 0 min 32 W/m 6,4 km/h (2 Bft) 97,87 %
20.08.2019 07:40 12,5 C 12,2 C 12,2 C 90 % 1021,7 hPa 0,0 l/m 0 min 0 min 33 W/m 6,4 km/h (2 Bft) 97,87 %
20.08.2019 07:42 12,5 C 12,2 C 12,2 C 90 % 1021,8 hPa 0,0 l/m 0 min 0 min 34 W/m 6,4 km/h (2 Bft) 95,74 %
20.08.2019 07:44 12,6 C 12,8 C 12,2 C 90 % 1021,8 hPa 0,0 l/m 0 min 0 min 35 W/m 6,4 km/h (2 Bft) 91,49 %
20.08.2019 07:46 12,6 C 12,8 C 12,2 C 90 % 1021,7 hPa 0,0 l/m 0 min 0 min 37 W/m 6,4 km/h (2 Bft) 95,65 %
20.08.2019 07:48 12,6 C 12,8 C 12,2 C 90 % 1021,8 hPa 0,0 l/m 0 min 0 min 38 W/m 12,9 km/h (3 Bft) 97,87 %
20.08.2019 07:50 12,6 C 12,8 C 12,2 C 90 % 1021,8 hPa 0,0 l/m 0 min 0 min 40 W/m 6,4 km/h (2 Bft) 97,87 %
20.08.2019 07:52 12,6 C 12,8 C 12,2 C 90 % 1021,8 hPa 0,0 l/m 0 min 0 min 41 W/m 6,4 km/h (2 Bft) 97,87 %
20.08.2019 07:54 12,7 C 12,8 C 12,2 C 91 % 1021,9 hPa 0,0 l/m 0 min 0 min 45 W/m 9,7 km/h (2 Bft) 95,74 %
20.08.2019 07:56 12,7 C 12,8 C 12,2 C 91 % 1021,9 hPa 0,0 l/m 0 min 0 min 46 W/m 12,9 km/h (3 Bft) 98,11 %
20.08.2019 07:58 12,7 C 12,8 C 12,2 C 91 % 1021,9 hPa 0,0 l/m 0 min 0 min 46 W/m 9,7 km/h (2 Bft) 97,87 %
20.08.2019 08:00 12,7 C 12,8 C 12,2 C 91 % 1021,9 hPa 0,0 l/m 0 min 0 min 46 W/m 19,3 km/h (3 Bft) 95,74 %
20.08.2019 08:02 12,8 C 13,3 C 12,8 C 91 % 1021,9 hPa 0,0 l/m 0 min 0 min 46 W/m 9,7 km/h (2 Bft) 95,92 %
20.08.2019 08:04 12,8 C 13,3 C 12,8 C 91 % 1021,9 hPa 0,0 l/m 0 min 0 min 47 W/m 12,9 km/h (3 Bft) 97,37 %
20.08.2019 08:06 12,9 C 13,3 C 12,8 C 91 % 1021,8 hPa 0,0 l/m 0 min 0 min 47 W/m 9,7 km/h (2 Bft) 95,74 %
20.08.2019 08:08 12,9 C 13,3 C 12,8 C 91 % 1021,9 hPa 0,0 l/m 0 min 0 min 47 W/m 12,9 km/h (3 Bft) 100,00 %
20.08.2019 08:10 12,9 C 13,3 C 12,8 C 91 % 1021,9 hPa 0,0 l/m 0 min 0 min 49 W/m 9,7 km/h (2 Bft) 97,83 %
20.08.2019 08:12 13,0 C 13,3 C 12,8 C 91 % 1021,8 hPa 0,0 l/m 0 min 0 min 50 W/m 9,7 km/h (2 Bft) 100,00 %
20.08.2019 08:14 13,1 C 13,3 C 12,8 C 91 % 1021,8 hPa 0,0 l/m 0 min 0 min 51 W/m 12,9 km/h (3 Bft) 97,83 %
20.08.2019 08:16 13,1 C 13,3 C 12,8 C 91 % 1021,9 hPa 0,0 l/m 0 min 0 min 53 W/m 6,4 km/h (2 Bft) 97,87 %
20.08.2019 08:18 13,1 C 13,3 C 12,8 C 91 % 1021,9 hPa 0,0 l/m 0 min 0 min 51 W/m 6,4 km/h (2 Bft) 100,00 %
20.08.2019 08:20 13,2 C 13,3 C 12,8 C 91 % 1021,9 hPa 0,0 l/m 0 min 0 min 50 W/m 12,9 km/h (3 Bft) 100,00 %
20.08.2019 08:22 13,2 C 13,9 C 12,8 C 91 % 1021,9 hPa 0,0 l/m 0 min 0 min 55 W/m 6,4 km/h (2 Bft) 100,00 %
20.08.2019 08:24 13,2 C 13,9 C 13,3 C 91 % 1021,9 hPa 0,0 l/m 0 min 0 min 58 W/m 9,7 km/h (2 Bft) 100,00 %
20.08.2019 08:26 13,3 C 13,9 C 13,3 C 91 % 1021,8 hPa 0,0 l/m 0 min 0 min 60 W/m 12,9 km/h (3 Bft) 100,00 %
20.08.2019 08:28 13,3 C 13,9 C 13,3 C 91 % 1021,9 hPa 0,0 l/m 0 min 0 min 62 W/m 9,7 km/h (2 Bft) 100,00 %
20.08.2019 08:30 13,4 C 13,9 C 13,3 C 91 % 1021,8 hPa 0,0 l/m 0 min 0 min 64 W/m 9,7 km/h (2 Bft) 100,00 %
20.08.2019 08:32 13,4 C 14,4 C 13,3 C 91 % 1021,9 hPa 0,0 l/m 0 min 0 min 65 W/m 9,7 km/h (2 Bft) 100,00 %
20.08.2019 08:34 13,5 C 14,4 C 13,9 C 91 % 1022,0 hPa 0,0 l/m 0 min 0 min 64 W/m 9,7 km/h (2 Bft) 97,30 %
20.08.2019 08:36 13,6 C 14,4 C 13,9 C 91 % 1021,8 hPa 0,0 l/m 0 min 0 min 64 W/m 12,9 km/h (3 Bft) 100,00 %
20.08.2019 08:38 13,7 C 14,4 C 13,9 C 91 % 1021,9 hPa 0,0 l/m 0 min 0 min 66 W/m 12,9 km/h (3 Bft) 100,00 %
20.08.2019 08:40 13,7 C 14,4 C 13,9 C 91 % 1021,9 hPa 0,0 l/m 0 min 0 min 68 W/m 9,7 km/h (2 Bft) 97,87 %
20.08.2019 08:42 13,8 C 14,4 C 13,9 C 91 % 1022,0 hPa 0,0 l/m 0 min 0 min 72 W/m 9,7 km/h (2 Bft) 100,00 %
20.08.2019 08:44 13,9 C 14,4 C 13,9 C 91 % 1021,8 hPa 0,0 l/m 0 min 0 min 74 W/m 16,1 km/h (3 Bft) 100,00 %
20.08.2019 08:46 14,0 C 14,4 C 13,9 C 91 % 1021,8 hPa 0,0 l/m 0 min 0 min 74 W/m 12,9 km/h (3 Bft) 100,00 %
20.08.2019 08:48 14,1 C 15,0 C 13,9 C 90 % 1021,8 hPa 0,0 l/m 0 min 0 min 78 W/m 6,4 km/h (2 Bft) 100,00 %
20.08.2019 08:50 14,2 C 16,7 C 13,9 C 90 % 1021,8 hPa 0,0 l/m 0 min 0 min 81 W/m 9,7 km/h (2 Bft) 100,00 %
20.08.2019 08:52 14,2 C 17,2 C 14,4 C 90 % 1021,8 hPa 0,0 l/m 0 min 0 min 123 W/m 9,7 km/h (2 Bft) 97,87 %
20.08.2019 08:54 14,2 C 17,8 C 14,4 C 90 % 1021,9 hPa 0,0 l/m 2 min 0 min 258 W/m 9,7 km/h (2 Bft) 100,00 %
20.08.2019 08:56 14,3 C 17,8 C 14,4 C 90 % 1021,8 hPa 0,0 l/m 2 min 0 min 298 W/m 16,1 km/h (3 Bft) 100,00 %
20.08.2019 08:58 14,4 C 17,8 C 14,4 C 90 % 1021,8 hPa 0,0 l/m 2 min 0 min 304 W/m 16,1 km/h (3 Bft) 100,00 %
20.08.2019 09:00 14,6 C 18,9 C 14,4 C 90 % 1021,9 hPa 0,0 l/m 2 min 0 min 313 W/m 9,7 km/h (2 Bft) 97,87 %
20.08.2019 09:02 14,7 C 18,9 C 15,0 C 90 % 1021,8 hPa 0,0 l/m 2 min 0 min 322 W/m 9,7 km/h (2 Bft) 97,87 %
20.08.2019 09:04 14,8 C 20,0 C 15,0 C 90 % 1021,9 hPa 0,0 l/m 2 min 0 min 336 W/m 6,4 km/h (2 Bft) 100,00 %
20.08.2019 09:06 14,9 C 20,0 C 15,0 C 89 % 1021,9 hPa 0,0 l/m 2 min 0 min 293 W/m 19,3 km/h (3 Bft) 100,00 %
20.08.2019 09:08 15,1 C 19,4 C 15,0 C 90 % 1021,8 hPa 0,0 l/m 2 min 0 min 281 W/m 6,4 km/h (2 Bft) 97,83 %
20.08.2019 09:10 15,2 C 18,9 C 15,0 C 89 % 1021,9 hPa 0,0 l/m 2 min 0 min 314 W/m 9,7 km/h (2 Bft) 95,74 %
20.08.2019 09:12 15,3 C 18,9 C 15,6 C 89 % 1021,8 hPa 0,0 l/m 2 min 0 min 330 W/m 9,7 km/h (2 Bft) 97,87 %
20.08.2019 09:14 15,4 C 18,9 C 16,1 C 89 % 1021,9 hPa 0,0 l/m 2 min 0 min 337 W/m 9,7 km/h (2 Bft) 100,00 %
20.08.2019 09:16 15,5 C 19,4 C 16,1 C 88 % 1021,9 hPa 0,0 l/m 2 min 0 min 361 W/m 6,4 km/h (2 Bft) 97,87 %
20.08.2019 09:18 15,6 C 19,4 C 16,1 C 88 % 1021,9 hPa 0,0 l/m 2 min 0 min 356 W/m 9,7 km/h (2 Bft) 95,74 %
20.08.2019 09:20 15,8 C 20,0 C 17,2 C 87 % 1022,1 hPa 0,0 l/m 2 min 0 min 352 W/m 19,3 km/h (3 Bft) 97,83 %
20.08.2019 09:22 15,9 C 20,6 C 18,9 C 87 % 1022,1 hPa 0,0 l/m 2 min 0 min 375 W/m 12,9 km/h (3 Bft) 100,00 %
20.08.2019 09:24 16,0 C 20,6 C 19,4 C 87 % 1022,1 hPa 0,0 l/m 2 min 0 min 380 W/m 9,7 km/h (2 Bft) 100,00 %
20.08.2019 09:26 16,1 C 20,0 C 19,4 C 87 % 1022,2 hPa 0,0 l/m 2 min 0 min 382 W/m 9,7 km/h (2 Bft) 97,87 %
20.08.2019 09:28 16,3 C 20,0 C 19,4 C 86 % 1022,2 hPa 0,0 l/m 2 min 0 min 405 W/m 12,9 km/h (3 Bft) 97,87 %
20.08.2019 09:30 16,3 C 20,6 C 20,0 C 86 % 1022,4 hPa 0,0 l/m 2 min 0 min 419 W/m 12,9 km/h (3 Bft) 97,87 %
20.08.2019 09:32 16,4 C 20,6 C 19,4 C 85 % 1022,2 hPa 0,0 l/m 2 min 0 min 416 W/m 9,7 km/h (2 Bft) 97,83 %
20.08.2019 09:34 16,5 C 20,6 C 20,0 C 85 % 1022,3 hPa 0,0 l/m 2 min 0 min 412 W/m 9,7 km/h (2 Bft) 97,87 %
20.08.2019 09:36 16,6 C 21,1 C 20,6 C 85 % 1022,2 hPa 0,0 l/m 2 min 0 min 421 W/m 6,4 km/h (2 Bft) 95,74 %
20.08.2019 09:38 16,7 C 21,7 C 21,1 C 85 % 1022,2 hPa 0,0 l/m 2 min 0 min 436 W/m 9,7 km/h (2 Bft) 97,87 %
20.08.2019 09:40 16,8 C 21,1 C 20,6 C 84 % 1022,2 hPa 0,0 l/m 2 min 0 min 443 W/m 6,4 km/h (2 Bft) 95,74 %
20.08.2019 09:42 16,9 C 21,1 C 20,6 C 84 % 1022,4 hPa 0,0 l/m 2 min 0 min 442 W/m 12,9 km/h (3 Bft) 95,74 %
20.08.2019 09:44 17,0 C 21,7 C 21,7 C 84 % 1022,4 hPa 0,0 l/m 2 min 0 min 452 W/m 12,9 km/h (3 Bft) 93,48 %
20.08.2019 09:46 17,1 C 21,7 C 21,7 C 84 % 1022,3 hPa 0,0 l/m 2 min 0 min 440 W/m 6,4 km/h (2 Bft) 91,49 %
20.08.2019 09:48 17,2 C 21,7 C 21,1 C 83 % 1022,3 hPa 0,0 l/m 2 min 0 min 433 W/m 9,7 km/h (2 Bft) 93,62 %
20.08.2019 09:50 17,3 C 20,6 C 20,6 C 83 % 1022,3 hPa 0,0 l/m 2 min 0 min 424 W/m 22,5 km/h (4 Bft) 91,49 %
20.08.2019 09:52 17,4 C 20,6 C 20,0 C 83 % 1022,3 hPa 0,0 l/m 2 min 0 min 417 W/m 9,7 km/h (2 Bft) 93,62 %
20.08.2019 09:54 17,4 C 20,6 C 20,0 C 82 % 1022,3 hPa 0,0 l/m 2 min 0 min 408 W/m 9,7 km/h (2 Bft) 91,49 %
20.08.2019 09:56 17,5 C 20,6 C 20,6 C 82 % 1022,4 hPa 0,0 l/m 2 min 0 min 437 W/m 16,1 km/h (3 Bft) 95,65 %
20.08.2019 09:58 17,6 C 20,6 C 20,6 C 82 % 1022,4 hPa 0,0 l/m 2 min 0 min 454 W/m 12,9 km/h (3 Bft) 93,62 %
20.08.2019 10:00 17,7 C 21,1 C 21,1 C 82 % 1022,4 hPa 0,0 l/m 2 min 0 min 486 W/m 16,1 km/h (3 Bft) 93,62 %
20.08.2019 10:02 17,8 C 20,6 C 21,1 C 81 % 1022,4 hPa 0,0 l/m 2 min 0 min 473 W/m 19,3 km/h (3 Bft) 93,62 %
20.08.2019 10:04 17,8 C 21,1 C 22,2 C 81 % 1022,5 hPa 0,0 l/m 2 min 0 min 446 W/m 16,1 km/h (3 Bft) 93,62 %
20.08.2019 10:06 17,9 C 22,2 C 22,2 C 81 % 1022,5 hPa 0,0 l/m 2 min 0 min 485 W/m 6,4 km/h (2 Bft) 95,65 %
20.08.2019 10:08 18,1 C 21,7 C 21,7 C 81 % 1022,4 hPa 0,0 l/m 2 min 0 min 518 W/m 16,1 km/h (3 Bft) 93,62 %
20.08.2019 10:10 18,1 C 21,7 C 21,7 C 80 % 1022,4 hPa 0,0 l/m 2 min 0 min 531 W/m 12,9 km/h (3 Bft) 93,62 %
20.08.2019 10:12 18,2 C 22,2 C 22,2 C 80 % 1022,4 hPa 0,0 l/m 2 min 0 min 538 W/m 6,4 km/h (2 Bft) 89,36 %
20.08.2019 10:14 18,3 C 22,2 C 21,7 C 80 % 1022,4 hPa 0,0 l/m 2 min 0 min 524 W/m 22,5 km/h (4 Bft) 93,62 %
20.08.2019 10:16 18,3 C 22,2 C 22,8 C 80 % 1022,4 hPa 0,0 l/m 2 min 0 min 538 W/m 9,7 km/h (2 Bft) 89,36 %
20.08.2019 10:18 18,4 C 22,8 C 23,3 C 80 % 1022,3 hPa 0,0 l/m 2 min 0 min 546 W/m 9,7 km/h (2 Bft) 93,48 %
20.08.2019 10:20 18,5 C 22,8 C 22,8 C 79 % 1022,3 hPa 0,0 l/m 2 min 0 min 530 W/m 9,7 km/h (2 Bft) 93,62 %
20.08.2019 10:22 18,6 C 22,2 C 22,8 C 79 % 1022,4 hPa 0,0 l/m 2 min 0 min 493 W/m 9,7 km/h (2 Bft) 93,62 %
20.08.2019 10:24 18,7 C 22,2 C 21,7 C 78 % 1022,3 hPa 0,0 l/m 2 min 0 min 500 W/m 9,7 km/h (2 Bft) 95,74 %
20.08.2019 10:26 18,7 C 22,8 C 22,2 C 78 % 1022,3 hPa 0,0 l/m 2 min 0 min 471 W/m 9,7 km/h (2 Bft) 95,74 %
20.08.2019 10:28 18,8 C 22,8 C 21,7 C 78 % 1022,3 hPa 0,0 l/m 2 min 0 min 506 W/m 6,4 km/h (2 Bft) 97,87 %
20.08.2019 10:30 18,8 C 22,2 C 21,7 C 78 % 1022,4 hPa 0,0 l/m 2 min 0 min 533 W/m 6,4 km/h (2 Bft) 95,65 %
20.08.2019 10:32 18,8 C 22,8 C 22,2 C 78 % 1022,3 hPa 0,0 l/m 2 min 0 min 487 W/m 6,4 km/h (2 Bft) 97,87 %
20.08.2019 10:34 18,8 C 22,8 C 22,2 C 78 % 1022,4 hPa 0,0 l/m 2 min 0 min 515 W/m 6,4 km/h (2 Bft) 97,87 %
20.08.2019 10:36 18,9 C 23,3 C 22,8 C 78 % 1022,4 hPa 0,0 l/m 2 min 0 min 573 W/m 6,4 km/h (2 Bft) 97,87 %
20.08.2019 10:38 18,9 C 23,9 C 22,8 C 78 % 1022,4 hPa 0,0 l/m 2 min 0 min 552 W/m 9,7 km/h (2 Bft) 95,74 %
20.08.2019 10:40 19,1 C 23,3 C 22,8 C 78 % 1022,5 hPa 0,0 l/m 2 min 0 min 552 W/m 6,4 km/h (2 Bft) 97,87 %
20.08.2019 10:42 19,1 C 23,9 C 23,3 C 77 % 1022,4 hPa 0,0 l/m 2 min 0 min 540 W/m 6,4 km/h (2 Bft) 97,83 %
20.08.2019 10:44 19,2 C 23,3 C 23,3 C 77 % 1022,5 hPa 0,0 l/m 2 min 0 min 528 W/m 6,4 km/h (2 Bft) 97,87 %
20.08.2019 10:46 19,2 C 22,8 C 21,7 C 76 % 1022,5 hPa 0,0 l/m 2 min 0 min 543 W/m 12,9 km/h (3 Bft) 97,87 %
20.08.2019 10:48 19,2 C 22,8 C 22,2 C 76 % 1022,5 hPa 0,0 l/m 2 min 0 min 516 W/m 3,2 km/h (1 Bft) 95,74 %
20.08.2019 10:50 19,2 C 23,3 C 22,2 C 76 % 1022,6 hPa 0,0 l/m 2 min 0 min 549 W/m 6,4 km/h (2 Bft) 97,87 %
20.08.2019 10:52 19,3 C 23,3 C 22,8 C 77 % 1022,6 hPa 0,0 l/m 2 min 0 min 517 W/m 6,4 km/h (2 Bft) 97,87 %
20.08.2019 10:54 19,3 C 21,7 C 21,1 C 76 % 1022,6 hPa 0,0 l/m 2 min 0 min 502 W/m 9,7 km/h (2 Bft) 97,83 %
20.08.2019 10:56 19,2 C 21,1 C 21,1 C 75 % 1022,6 hPa 0,0 l/m 2 min 0 min 552 W/m 12,9 km/h (3 Bft) 97,87 %
20.08.2019 10:58 19,2 C 22,2 C 21,1 C 76 % 1022,5 hPa 0,0 l/m 2 min 0 min 518 W/m 6,4 km/h (2 Bft) 97,87 %
20.08.2019 11:00 19,2 C 22,2 C 21,1 C 76 % 1022,5 hPa 0,0 l/m 2 min 0 min 467 W/m 12,9 km/h (3 Bft) 97,87 %
20.08.2019 11:02 19,2 C 22,2 C 21,7 C 75 % 1022,6 hPa 0,0 l/m 2 min 0 min 490 W/m 12,9 km/h (3 Bft) 97,87 %
20.08.2019 11:04 19,2 C 21,7 C 21,1 C 75 % 1022,6 hPa 0,0 l/m 2 min 0 min 514 W/m 12,9 km/h (3 Bft) 97,87 %
20.08.2019 11:06 19,2 C 22,2 C 21,7 C 75 % 1022,6 hPa 0,0 l/m 2 min 0 min 506 W/m 6,4 km/h (2 Bft) 97,83 %
20.08.2019 11:08 19,2 C 22,2 C 21,7 C 74 % 1022,6 hPa 0,0 l/m 2 min 0 min 477 W/m 12,9 km/h (3 Bft) 98,11 %
20.08.2019 11:10 19,2 C 22,8 C 21,7 C 74 % 1022,6 hPa 0,0 l/m 2 min 0 min 473 W/m 9,7 km/h (2 Bft) 100,00 %
20.08.2019 11:12 19,3 C 22,8 C 21,7 C 74 % 1022,6 hPa 0,0 l/m 2 min 0 min 494 W/m 9,7 km/h (2 Bft) 100,00 %
20.08.2019 11:14 19,3 C 22,2 C 21,7 C 73 % 1022,7 hPa 0,0 l/m 2 min 0 min 468 W/m 9,7 km/h (2 Bft) 100,00 %
20.08.2019 11:16 19,3 C 22,2 C 21,1 C 73 % 1022,6 hPa 0,0 l/m 2 min 0 min 416 W/m 9,7 km/h (2 Bft) 100,00 %
20.08.2019 11:18 19,3 C 22,2 C 20,6 C 72 % 1022,6 hPa 0,0 l/m 2 min 0 min 435 W/m 12,9 km/h (3 Bft) 100,00 %
20.08.2019 11:20 19,3 C 21,7 C 20,0 C 72 % 1022,6 hPa 0,0 l/m 2 min 0 min 479 W/m 9,7 km/h (2 Bft) 100,00 %
20.08.2019 11:22 19,3 C 22,8 C 20,0 C 72 % 1022,6 hPa 0,0 l/m 2 min 0 min 542 W/m 16,1 km/h (3 Bft) 100,00 %
20.08.2019 11:24 19,4 C 23,3 C 20,6 C 71 % 1022,7 hPa 0,0 l/m 2 min 0 min 517 W/m 6,4 km/h (2 Bft) 100,00 %
20.08.2019 11:26 19,4 C 23,3 C 20,6 C 71 % 1022,7 hPa 0,0 l/m 2 min 0 min 491 W/m 6,4 km/h (2 Bft) 100,00 %
20.08.2019 11:28 19,5 C 23,3 C 20,0 C 71 % 1022,7 hPa 0,0 l/m 2 min 0 min 511 W/m 9,7 km/h (2 Bft) 100,00 %
20.08.2019 11:30 19,5 C 23,3 C 20,6 C 71 % 1022,6 hPa 0,0 l/m 2 min 0 min 547 W/m 9,7 km/h (2 Bft) 100,00 %
20.08.2019 11:32 19,5 C 22,2 C 20,0 C 69 % 1022,7 hPa 0,0 l/m 2 min 0 min 483 W/m 12,9 km/h (3 Bft) 100,00 %
20.08.2019 11:34 19,5 C 22,8 C 20,0 C 69 % 1022,7 hPa 0,0 l/m 2 min 0 min 478 W/m 16,1 km/h (3 Bft) 100,00 %
20.08.2019 11:36 19,5 C 22,8 C 20,0 C 69 % 1022,7 hPa 0,0 l/m 2 min 0 min 515 W/m 6,4 km/h (2 Bft) 100,00 %
20.08.2019 11:38 19,6 C 22,8 C 20,0 C 69 % 1022,7 hPa 0,0 l/m 2 min 0 min 554 W/m 6,4 km/h (2 Bft) 100,00 %
20.08.2019 11:40 19,6 C 23,9 C 20,6 C 70 % 1022,7 hPa 0,0 l/m 2 min 0 min 596 W/m 6,4 km/h (2 Bft) 100,00 %
20.08.2019 11:42 19,7 C 23,3 C 20,6 C 69 % 1022,7 hPa 0,0 l/m 2 min 0 min 578 W/m 12,9 km/h (3 Bft) 100,00 %
20.08.2019 11:44 19,7 C 23,3 C 20,6 C 69 % 1022,7 hPa 0,0 l/m 2 min 0 min 518 W/m 9,7 km/h (2 Bft) 100,00 %
20.08.2019 11:46 19,7 C 22,8 C 20,0 C 68 % 1022,7 hPa 0,0 l/m 2 min 0 min 511 W/m 16,1 km/h (3 Bft) 100,00 %
20.08.2019 11:48 19,7 C 22,8 C 20,6 C 68 % 1022,7 hPa 0,0 l/m 2 min 0 min 537 W/m 9,7 km/h (2 Bft) 100,00 %
20.08.2019 11:50 19,8 C 22,8 C 20,0 C 68 % 1022,8 hPa 0,0 l/m 2 min 0 min 594 W/m 12,9 km/h (3 Bft) 100,00 %
20.08.2019 11:52 19,8 C 23,3 C 20,0 C 67 % 1022,7 hPa 0,0 l/m 2 min 0 min 593 W/m 9,7 km/h (2 Bft) 100,00 %
20.08.2019 11:54 19,9 C 23,9 C 20,6 C 68 % 1022,7 hPa 0,0 l/m 2 min 0 min 614 W/m 9,7 km/h (2 Bft) 100,00 %
20.08.2019 11:56 19,9 C 24,4 C 20,6 C 68 % 1022,8 hPa 0,0 l/m 2 min 0 min 677 W/m 9,7 km/h (2 Bft) 100,00 %
20.08.2019 11:58 20,0 C 23,9 C 20,0 C 67 % 1022,7 hPa 0,0 l/m 2 min 0 min 732 W/m 16,1 km/h (3 Bft) 100,00 %
20.08.2019 12:00 20,1 C 22,8 C 20,0 C 66 % 1022,7 hPa 0,0 l/m 2 min 0 min 617 W/m 22,5 km/h (4 Bft) 100,00 %
20.08.2019 12:02 20,1 C 23,3 C 20,0 C 67 % 1022,7 hPa 0,0 l/m 2 min 0 min 575 W/m 9,7 km/h (2 Bft) 100,00 %
20.08.2019 12:04 20,1 C 24,4 C 20,6 C 68 % 1022,7 hPa 0,0 l/m 2 min 0 min 616 W/m 12,9 km/h (3 Bft) 100,00 %
20.08.2019 12:08 20,2 C 24,4 C 20,6 C 67 % 1022,7 hPa 0,0 l/m 4 min 0 min 644 W/m 16,1 km/h (3 Bft) 96,77 %
20.08.2019 12:10 20,3 C 25,0 C 20,6 C 66 % 1022,7 hPa 0,0 l/m 2 min 0 min 692 W/m 6,4 km/h (2 Bft) 95,74 %
20.08.2019 12:12 20,4 C 25,0 C 21,1 C 66 % 1022,7 hPa 0,0 l/m 2 min 0 min 712 W/m 6,4 km/h (2 Bft) 95,74 %
20.08.2019 12:14 20,4 C 26,1 C 21,1 C 66 % 1022,7 hPa 0,0 l/m 2 min 0 min 728 W/m 9,7 km/h (2 Bft) 97,87 %
20.08.2019 12:16 20,5 C 25,6 C 21,1 C 66 % 1022,8 hPa 0,0 l/m 2 min 0 min 726 W/m 12,9 km/h (3 Bft) 97,87 %
20.08.2019 12:18 20,6 C 26,1 C 21,1 C 66 % 1022,7 hPa 0,0 l/m 2 min 0 min 729 W/m 12,9 km/h (3 Bft) 97,83 %
20.08.2019 12:20 20,7 C 24,4 C 20,6 C 65 % 1022,8 hPa 0,0 l/m 2 min 0 min 703 W/m 9,7 km/h (2 Bft) 97,87 %
20.08.2019 12:22 20,7 C 25,0 C 20,6 C 65 % 1022,7 hPa 0,0 l/m 2 min 0 min 711 W/m 9,7 km/h (2 Bft) 95,74 %
20.08.2019 12:24 20,8 C 25,6 C 21,1 C 65 % 1022,8 hPa 0,0 l/m 2 min 0 min 758 W/m 6,4 km/h (2 Bft) 97,87 %
20.08.2019 12:26 20,9 C 25,6 C 21,1 C 64 % 1022,7 hPa 0,0 l/m 2 min 0 min 769 W/m 12,9 km/h (3 Bft) 97,87 %
20.08.2019 12:28 21,0 C 26,7 C 21,1 C 65 % 1022,7 hPa 0,0 l/m 2 min 0 min 731 W/m 9,7 km/h (2 Bft) 95,74 %
20.08.2019 12:30 21,1 C 26,1 C 21,7 C 64 % 1022,8 hPa 0,0 l/m 2 min 0 min 831 W/m 16,1 km/h (3 Bft) 100,00 %
20.08.2019 12:32 21,2 C 26,7 C 21,7 C 63 % 1022,8 hPa 0,0 l/m 2 min 0 min 852 W/m 12,9 km/h (3 Bft) 97,87 %
20.08.2019 12:34 21,3 C 26,7 C 21,7 C 63 % 1022,9 hPa 0,0 l/m 2 min 0 min 867 W/m 16,1 km/h (3 Bft) 95,74 %
20.08.2019 12:36 21,4 C 27,2 C 22,2 C 63 % 1022,8 hPa 0,0 l/m 2 min 0 min 814 W/m 16,1 km/h (3 Bft) 95,74 %
20.08.2019 12:38 21,6 C 25,0 C 21,7 C 61 % 1022,8 hPa 0,0 l/m 2 min 0 min 782 W/m 22,5 km/h (4 Bft) 95,74 %
20.08.2019 12:40 21,6 C 25,6 C 21,7 C 61 % 1022,6 hPa 0,0 l/m 2 min 0 min 810 W/m 12,9 km/h (3 Bft) 95,74 %
20.08.2019 12:42 21,7 C 24,4 C 21,7 C 60 % 1022,7 hPa 0,0 l/m 2 min 0 min 764 W/m 22,5 km/h (4 Bft) 95,65 %
20.08.2019 12:44 21,7 C 24,4 C 21,1 C 60 % 1022,7 hPa 0,0 l/m 2 min 0 min 693 W/m 19,3 km/h (3 Bft) 95,74 %
20.08.2019 12:46 21,7 C 25,0 C 21,1 C 60 % 1022,8 hPa 0,0 l/m 2 min 0 min 791 W/m 16,1 km/h (3 Bft) 93,62 %
20.08.2019 12:48 21,7 C 25,0 C 21,1 C 59 % 1022,7 hPa 0,0 l/m 2 min 0 min 784 W/m 16,1 km/h (3 Bft) 95,74 %
20.08.2019 12:50 21,7 C 26,1 C 21,1 C 60 % 1022,7 hPa 0,0 l/m 2 min 0 min 806 W/m 16,1 km/h (3 Bft) 97,87 %
20.08.2019 12:52 21,7 C 26,1 C 21,1 C 59 % 1022,7 hPa 0,0 l/m 2 min 0 min 895 W/m 19,3 km/h (3 Bft) 95,74 %
20.08.2019 12:54 21,8 C 27,2 C 21,7 C 61 % 1022,7 hPa 0,0 l/m 2 min 0 min 869 W/m 9,7 km/h (2 Bft) 93,48 %
20.08.2019 12:56 21,9 C 27,8 C 22,2 C 62 % 1022,7 hPa 0,0 l/m 2 min 0 min 864 W/m 12,9 km/h (3 Bft) 97,87 %
20.08.2019 12:58 21,9 C 26,7 C 21,7 C 60 % 1022,7 hPa 0,0 l/m 2 min 0 min 918 W/m 19,3 km/h (3 Bft) 97,87 %
20.08.2019 13:00 21,9 C 26,7 C 21,7 C 59 % 1022,7 hPa 0,0 l/m 2 min 0 min 857 W/m 16,1 km/h (3 Bft) 97,87 %
20.08.2019 13:02 22,0 C 26,7 C 22,2 C 60 % 1022,8 hPa 0,0 l/m 2 min 0 min 815 W/m 19,3 km/h (3 Bft) 95,74 %
20.08.2019 13:04 22,1 C 27,2 C 21,7 C 62 % 1022,7 hPa 0,0 l/m 2 min 0 min 476 W/m 9,7 km/h (2 Bft) 97,87 %
20.08.2019 13:06 22,2 C 28,9 C 22,2 C 64 % 1022,7 hPa 0,0 l/m 2 min 0 min 872 W/m 6,4 km/h (2 Bft) 97,83 %
20.08.2019 13:08 22,4 C 29,4 C 22,2 C 63 % 1022,7 hPa 0,0 l/m 2 min 0 min 981 W/m 6,4 km/h (2 Bft) 97,87 %
20.08.2019 13:10 22,5 C 28,9 C 22,2 C 60 % 1022,7 hPa 0,0 l/m 2 min 0 min 981 W/m 9,7 km/h (2 Bft) 97,87 %
20.08.2019 13:12 22,6 C 29,4 C 22,2 C 60 % 1022,6 hPa 0,0 l/m 2 min 0 min 981 W/m 6,4 km/h (2 Bft) 96,00 %
20.08.2019 13:14 22,6 C 27,8 C 22,2 C 58 % 1022,7 hPa 0,0 l/m 2 min 0 min 955 W/m 16,1 km/h (3 Bft) 97,87 %
20.08.2019 13:16 22,6 C 27,2 C 22,2 C 58 % 1022,7 hPa 0,0 l/m 2 min 0 min 960 W/m 25,7 km/h (4 Bft) 97,83 %
20.08.2019 13:18 22,6 C 25,0 C 22,2 C 58 % 1022,7 hPa 0,0 l/m 2 min 0 min 967 W/m 16,1 km/h (3 Bft) 97,87 %
20.08.2019 13:20 22,6 C 23,9 C 21,7 C 58 % 1022,7 hPa 0,0 l/m 0 min 0 min 210 W/m 9,7 km/h (2 Bft) 97,37 %
20.08.2019 13:22 22,6 C 22,8 C 21,1 C 58 % 1022,6 hPa 0,0 l/m 0 min 0 min 194 W/m 12,9 km/h (3 Bft) 97,87 %
20.08.2019 13:24 22,5 C 23,9 C 21,1 C 58 % 1022,7 hPa 0,0 l/m 0 min 0 min 259 W/m 9,7 km/h (2 Bft) 97,83 %
20.08.2019 13:26 22,5 C 26,1 C 21,7 C 58 % 1022,7 hPa 0,0 l/m 2 min 0 min 972 W/m 12,9 km/h (3 Bft) 100,00 %
20.08.2019 13:28 22,6 C 28,3 C 22,2 C 60 % 1022,7 hPa 0,0 l/m 2 min 0 min 981 W/m 6,4 km/h (2 Bft) 100,00 %
20.08.2019 13:30 22,6 C 27,2 C 22,2 C 60 % 1022,7 hPa 0,0 l/m 2 min 0 min 666 W/m 6,4 km/h (2 Bft) 100,00 %
20.08.2019 13:32 22,6 C 25,0 C 21,7 C 60 % 1022,8 hPa 0,0 l/m 0 min 0 min 203 W/m 6,4 km/h (2 Bft) 100,00 %
20.08.2019 13:34 22,6 C 23,9 C 21,1 C 61 % 1022,7 hPa 0,0 l/m 0 min 0 min 198 W/m 6,4 km/h (2 Bft) 100,00 %
20.08.2019 13:36 22,5 C 23,3 C 21,1 C 62 % 1022,8 hPa 0,0 l/m 0 min 0 min 199 W/m 3,2 km/h (1 Bft) 100,00 %
20.08.2019 13:38 22,4 C 22,8 C 21,1 C 62 % 1022,7 hPa 0,0 l/m 0 min 0 min 172 W/m 0,0 km/h (0 Bft) 100,00 %
20.08.2019 13:40 22,3 C 22,2 C 20,6 C 62 % 1022,7 hPa 0,0 l/m 0 min 0 min 156 W/m 3,2 km/h (1 Bft) 97,83 %
20.08.2019 13:42 22,3 C 21,7 C 20,6 C 62 % 1022,7 hPa 0,0 l/m 0 min 0 min 167 W/m 6,4 km/h (2 Bft) 100,00 %
20.08.2019 13:44 22,2 C 24,4 C 22,2 C 61 % 1022,8 hPa 0,0 l/m 0 min 0 min 342 W/m 9,7 km/h (2 Bft) 100,00 %
20.08.2019 13:46 22,2 C 25,6 C 24,4 C 61 % 1022,8 hPa 0,0 l/m 2 min 0 min 939 W/m 9,7 km/h (2 Bft) 100,00 %
20.08.2019 13:48 22,2 C 23,9 C 23,9 C 59 % 1022,8 hPa 0,0 l/m 2 min 0 min 911 W/m 12,9 km/h (3 Bft) 97,14 %
20.08.2019 13:50 22,2 C 22,8 C 22,8 C 59 % 1022,8 hPa 0,0 l/m 0 min 0 min 211 W/m 9,7 km/h (2 Bft) 96,49 %
20.08.2019 13:52 22,2 C 22,2 C 21,7 C 59 % 1022,8 hPa 0,0 l/m 0 min 0 min 201 W/m 12,9 km/h (3 Bft) 100,00 %
20.08.2019 13:54 22,1 C 21,7 C 21,1 C 59 % 1022,7 hPa 0,0 l/m 0 min 0 min 195 W/m 9,7 km/h (2 Bft) 97,87 %
20.08.2019 13:56 22,1 C 21,7 C 20,6 C 59 % 1022,7 hPa 0,0 l/m 0 min 0 min 199 W/m 9,7 km/h (2 Bft) 97,87 %
20.08.2019 13:58 22,0 C 21,7 C 21,1 C 60 % 1022,8 hPa 0,0 l/m 0 min 0 min 213 W/m 12,9 km/h (3 Bft) 97,87 %
20.08.2019 14:00 22,0 C 22,2 C 21,1 C 60 % 1022,8 hPa 0,0 l/m 0 min 0 min 257 W/m 0,0 km/h (0 Bft) 95,65 %
20.08.2019 14:02 21,9 C 23,9 C 23,3 C 60 % 1022,8 hPa 0,0 l/m 2 min 0 min 442 W/m 12,9 km/h (3 Bft) 100,00 %
20.08.2019 14:04 21,9 C 26,1 C 25,6 C 60 % 1022,8 hPa 0,0 l/m 2 min 0 min 914 W/m 9,7 km/h (2 Bft) 100,00 %
20.08.2019 14:06 21,9 C 25,0 C 26,1 C 60 % 1022,8 hPa 0,0 l/m 2 min 0 min 791 W/m 12,9 km/h (3 Bft) 97,37 %
20.08.2019 14:08 21,9 C 25,6 C 26,1 C 60 % 1022,8 hPa 0,0 l/m 2 min 0 min 680 W/m 9,7 km/h (2 Bft) 95,83 %
20.08.2019 14:10 21,9 C 24,4 C 24,4 C 61 % 1022,8 hPa 0,0 l/m 0 min 0 min 279 W/m 9,7 km/h (2 Bft) 100,00 %
20.08.2019 14:12 21,9 C 23,3 C 22,8 C 60 % 1022,8 hPa 0,0 l/m 0 min 0 min 221 W/m 12,9 km/h (3 Bft) 100,00 %
20.08.2019 14:14 21,9 C 22,2 C 21,7 C 59 % 1022,8 hPa 0,0 l/m 0 min 0 min 225 W/m 12,9 km/h (3 Bft) 97,87 %
20.08.2019 14:16 21,8 C 21,7 C 21,1 C 59 % 1022,8 hPa 0,0 l/m 0 min 0 min 207 W/m 12,9 km/h (3 Bft) 94,55 %
20.08.2019 14:18 21,8 C 21,1 C 21,1 C 58 % 1022,8 hPa 0,0 l/m 0 min 0 min 188 W/m 19,3 km/h (3 Bft) 97,37 %
20.08.2019 14:20 21,7 C 21,1 C 20,6 C 58 % 1022,8 hPa 0,0 l/m 0 min 0 min 171 W/m 6,4 km/h (2 Bft) 97,92 %
20.08.2019 14:22 21,6 C 20,6 C 20,6 C 59 % 1022,8 hPa 0,0 l/m 0 min 0 min 163 W/m 9,7 km/h (2 Bft) 95,65 %
20.08.2019 14:24 21,6 C 21,1 C 20,6 C 60 % 1022,8 hPa 0,0 l/m 0 min 0 min 176 W/m 12,9 km/h (3 Bft) 95,74 %
20.08.2019 14:26 21,4 C 21,1 C 20,6 C 59 % 1022,7 hPa 0,0 l/m 0 min 0 min 203 W/m 9,7 km/h (2 Bft) 95,74 %
20.08.2019 14:28 21,4 C 21,1 C 20,6 C 60 % 1022,8 hPa 0,0 l/m 0 min 0 min 228 W/m 9,7 km/h (2 Bft) 98,18 %
20.08.2019 14:30 21,3 C 21,7 C 20,6 C 60 % 1022,7 hPa 0,0 l/m 0 min 0 min 273 W/m 6,4 km/h (2 Bft) 95,74 %
20.08.2019 14:32 21,3 C 22,2 C 21,1 C 61 % 1022,7 hPa 0,0 l/m 2 min 0 min 557 W/m 12,9 km/h (3 Bft) 100,00 %
20.08.2019 14:34 21,3 C 21,7 C 20,6 C 61 % 1022,7 hPa 0,0 l/m 0 min 0 min 269 W/m 9,7 km/h (2 Bft) 97,87 %
20.08.2019 14:36 21,3 C 21,7 C 20,6 C 61 % 1022,8 hPa 0,0 l/m 0 min 0 min 200 W/m 6,4 km/h (2 Bft) 95,74 %
20.08.2019 14:38 21,2 C 21,1 C 20,6 C 61 % 1022,7 hPa 0,0 l/m 0 min 0 min 197 W/m 6,4 km/h (2 Bft) 97,87 %
20.08.2019 14:40 21,2 C 23,3 C 21,1 C 61 % 1022,8 hPa 0,0 l/m 2 min 0 min 503 W/m 3,2 km/h (1 Bft) 95,74 %
20.08.2019 14:42 21,2 C 23,3 C 21,1 C 63 % 1022,8 hPa 0,0 l/m 2 min 0 min 499 W/m 6,4 km/h (2 Bft) 95,74 %
20.08.2019 14:44 21,2 C 24,4 C 21,1 C 61 % 1022,8 hPa 0,0 l/m 2 min 0 min 395 W/m 16,1 km/h (3 Bft) 96,36 %
20.08.2019 14:46 21,2 C 26,1 C 21,7 C 61 % 1022,8 hPa 0,0 l/m 2 min 0 min 889 W/m 9,7 km/h (2 Bft) 93,62 %
20.08.2019 14:48 21,3 C 26,1 C 21,7 C 61 % 1022,8 hPa 0,0 l/m 2 min 0 min 867 W/m 12,9 km/h (3 Bft) 95,74 %
20.08.2019 14:50 21,3 C 26,1 C 21,7 C 62 % 1022,8 hPa 0,0 l/m 2 min 0 min 867 W/m 9,7 km/h (2 Bft) 95,65 %
20.08.2019 14:52 21,4 C 26,1 C 22,2 C 61 % 1022,8 hPa 0,0 l/m 2 min 0 min 867 W/m 12,9 km/h (3 Bft) 95,74 %
20.08.2019 14:54 21,5 C 27,2 C 22,2 C 60 % 1022,8 hPa 0,0 l/m 2 min 0 min 880 W/m 9,7 km/h (2 Bft) 94,74 %
20.08.2019 14:56 21,6 C 27,2 C 22,2 C 59 % 1022,9 hPa 0,0 l/m 2 min 0 min 883 W/m 22,5 km/h (4 Bft) 95,83 %
20.08.2019 14:58 21,7 C 27,2 C 22,2 C 58 % 1022,9 hPa 0,0 l/m 2 min 0 min 877 W/m 19,3 km/h (3 Bft) 93,48 %
20.08.2019 15:00 21,8 C 26,1 C 22,2 C 57 % 1023,0 hPa 0,0 l/m 2 min 0 min 808 W/m 16,1 km/h (3 Bft) 95,74 %
20.08.2019 15:02 21,8 C 26,7 C 22,2 C 57 % 1022,9 hPa 0,0 l/m 2 min 0 min 593 W/m 9,7 km/h (2 Bft) 95,74 %
20.08.2019 15:04 21,9 C 26,7 C 22,2 C 57 % 1022,9 hPa 0,0 l/m 2 min 0 min 607 W/m 9,7 km/h (2 Bft) 97,87 %
20.08.2019 15:06 22,1 C 26,1 C 22,2 C 57 % 1022,9 hPa 0,0 l/m 2 min 0 min 732 W/m 19,3 km/h (3 Bft) 92,73 %
20.08.2019 15:08 22,1 C 26,1 C 22,2 C 57 % 1023,0 hPa 0,0 l/m 2 min 0 min 680 W/m 16,1 km/h (3 Bft) 95,74 %
20.08.2019 15:10 22,2 C 26,7 C 22,2 C 58 % 1022,9 hPa 0,0 l/m 2 min 0 min 701 W/m 16,1 km/h (3 Bft) 92,11 %
20.08.2019 15:12 22,3 C 27,2 C 22,8 C 58 % 1022,9 hPa 0,0 l/m 2 min 0 min 688 W/m 12,9 km/h (3 Bft) 95,74 %
20.08.2019 15:14 22,3 C 27,2 C 22,8 C 57 % 1022,8 hPa 0,0 l/m 2 min 0 min 721 W/m 12,9 km/h (3 Bft) 97,87 %
20.08.2019 15:16 22,4 C 27,8 C 22,8 C 57 % 1022,8 hPa 0,0 l/m 2 min 0 min 774 W/m 9,7 km/h (2 Bft) 97,87 %
20.08.2019 15:18 22,5 C 28,9 C 22,8 C 57 % 1022,7 hPa 0,0 l/m 2 min 0 min 800 W/m 9,7 km/h (2 Bft) 97,87 %
20.08.2019 15:20 22,6 C 27,8 C 22,8 C 56 % 1022,7 hPa 0,0 l/m 2 min 0 min 788 W/m 12,9 km/h (3 Bft) 97,87 %
20.08.2019 15:22 22,7 C 26,1 C 22,2 C 55 % 1022,8 hPa 0,0 l/m 2 min 0 min 744 W/m 22,5 km/h (4 Bft) 100,00 %
20.08.2019 15:24 22,7 C 27,2 C 22,2 C 56 % 1022,9 hPa 0,0 l/m 2 min 0 min 770 W/m 9,7 km/h (2 Bft) 97,87 %
20.08.2019 15:26 22,8 C 27,8 C 22,8 C 56 % 1022,9 hPa 0,0 l/m 2 min 0 min 823 W/m 16,1 km/h (3 Bft) 100,00 %
20.08.2019 15:28 22,8 C 26,1 C 22,8 C 56 % 1023,0 hPa 0,0 l/m 2 min 0 min 829 W/m 25,7 km/h (4 Bft) 100,00 %
20.08.2019 15:30 22,9 C 26,7 C 22,8 C 55 % 1022,8 hPa 0,0 l/m 2 min 0 min 779 W/m 12,9 km/h (3 Bft) 100,00 %
20.08.2019 15:32 22,9 C 26,7 C 22,8 C 56 % 1022,8 hPa 0,0 l/m 2 min 0 min 696 W/m 12,9 km/h (3 Bft) 97,37 %
20.08.2019 15:34 22,9 C 27,2 C 22,8 C 56 % 1022,8 hPa 0,0 l/m 2 min 0 min 622 W/m 6,4 km/h (2 Bft) 93,62 %
20.08.2019 15:36 23,0 C 26,1 C 22,8 C 55 % 1022,9 hPa 0,0 l/m 2 min 0 min 617 W/m 9,7 km/h (2 Bft) 97,87 %
20.08.2019 15:38 23,0 C 25,6 C 22,8 C 55 % 1022,9 hPa 0,0 l/m 2 min 0 min 463 W/m 12,9 km/h (3 Bft) 97,87 %
20.08.2019 15:40 23,0 C 25,0 C 22,2 C 54 % 1023,0 hPa 0,0 l/m 2 min 0 min 528 W/m 19,3 km/h (3 Bft) 97,87 %
20.08.2019 15:42 23,0 C 26,1 C 22,8 C 53 % 1022,8 hPa 0,0 l/m 2 min 0 min 612 W/m 16,1 km/h (3 Bft) 97,87 %
20.08.2019 15:44 23,0 C 26,1 C 22,8 C 54 % 1022,7 hPa 0,0 l/m 2 min 0 min 748 W/m 9,7 km/h (2 Bft) 96,36 %
20.08.2019 15:46 23,0 C 25,6 C 22,8 C 54 % 1022,7 hPa 0,0 l/m 0 min 0 min 278 W/m 12,9 km/h (3 Bft) 97,37 %
20.08.2019 15:48 23,0 C 26,7 C 22,8 C 54 % 1022,6 hPa 0,0 l/m 2 min 0 min 602 W/m 16,1 km/h (3 Bft) 97,87 %
20.08.2019 15:50 23,1 C 27,8 C 22,8 C 56 % 1022,6 hPa 0,0 l/m 2 min 0 min 765 W/m 6,4 km/h (2 Bft) 97,87 %
20.08.2019 15:52 23,1 C 28,3 C 23,3 C 56 % 1022,6 hPa 0,0 l/m 2 min 0 min 823 W/m 6,4 km/h (2 Bft) 97,87 %
20.08.2019 15:54 23,2 C 27,2 C 22,8 C 54 % 1022,6 hPa 0,0 l/m 2 min 0 min 771 W/m 16,1 km/h (3 Bft) 97,87 %
20.08.2019 15:56 23,2 C 27,2 C 22,8 C 55 % 1022,6 hPa 0,0 l/m 2 min 0 min 744 W/m 16,1 km/h (3 Bft) 95,65 %
20.08.2019 15:58 23,3 C 27,2 C 22,8 C 53 % 1022,6 hPa 0,0 l/m 2 min 0 min 764 W/m 22,5 km/h (4 Bft) 97,87 %
20.08.2019 16:00 23,3 C 26,7 C 22,8 C 53 % 1022,6 hPa 0,0 l/m 2 min 0 min 747 W/m 22,5 km/h (4 Bft) 93,62 %
20.08.2019 16:02 23,3 C 26,7 C 22,8 C 52 % 1022,5 hPa 0,0 l/m 2 min 0 min 777 W/m 12,9 km/h (3 Bft) 97,87 %
20.08.2019 16:04 23,3 C 27,2 C 22,8 C 53 % 1022,5 hPa 0,0 l/m 2 min 0 min 778 W/m 16,1 km/h (3 Bft) 98,18 %
20.08.2019 16:06 23,3 C 27,8 C 22,8 C 54 % 1022,6 hPa 0,0 l/m 2 min 0 min 743 W/m 9,7 km/h (2 Bft) 97,37 %
20.08.2019 16:08 23,4 C 26,1 C 22,8 C 53 % 1022,6 hPa 0,0 l/m 2 min 0 min 470 W/m 12,9 km/h (3 Bft) 97,87 %
20.08.2019 16:10 23,4 C 27,2 C 22,8 C 53 % 1022,6 hPa 0,0 l/m 2 min 0 min 546 W/m 9,7 km/h (2 Bft) 97,87 %
20.08.2019 16:12 23,4 C 27,2 C 23,3 C 54 % 1022,6 hPa 0,0 l/m 2 min 0 min 736 W/m 9,7 km/h (2 Bft) 97,87 %
20.08.2019 16:14 23,4 C 26,7 C 23,3 C 53 % 1022,5 hPa 0,0 l/m 2 min 0 min 636 W/m 9,7 km/h (2 Bft) 98,18 %
20.08.2019 16:16 23,5 C 25,0 C 22,8 C 53 % 1022,6 hPa 0,0 l/m 2 min 0 min 382 W/m 16,1 km/h (3 Bft) 97,87 %
20.08.2019 16:18 23,5 C 25,0 C 22,8 C 54 % 1022,6 hPa 0,0 l/m 0 min 0 min 233 W/m 6,4 km/h (2 Bft) 97,87 %
20.08.2019 16:20 23,5 C 25,6 C 22,8 C 54 % 1022,6 hPa 0,0 l/m 2 min 0 min 430 W/m 9,7 km/h (2 Bft) 97,37 %
20.08.2019 16:22 23,5 C 26,1 C 22,8 C 53 % 1022,6 hPa 0,0 l/m 2 min 0 min 446 W/m 3,2 km/h (1 Bft) 97,87 %
20.08.2019 16:24 23,6 C 27,8 C 23,9 C 54 % 1022,6 hPa 0,0 l/m 2 min 0 min 640 W/m 9,7 km/h (2 Bft) 97,87 %
20.08.2019 16:26 23,6 C 28,3 C 24,4 C 53 % 1022,6 hPa 0,0 l/m 2 min 0 min 812 W/m 12,9 km/h (3 Bft) 98,18 %
20.08.2019 16:28 23,6 C 28,3 C 24,4 C 53 % 1022,7 hPa 0,0 l/m 2 min 0 min 794 W/m 16,1 km/h (3 Bft) 97,87 %
20.08.2019 16:30 23,7 C 26,7 C 23,9 C 52 % 1022,7 hPa 0,0 l/m 2 min 0 min 577 W/m 16,1 km/h (3 Bft) 97,87 %
20.08.2019 16:32 23,7 C 25,0 C 23,3 C 53 % 1022,7 hPa 0,0 l/m 0 min 0 min 249 W/m 16,1 km/h (3 Bft) 97,87 %
20.08.2019 16:34 23,6 C 23,9 C 22,8 C 52 % 1022,7 hPa 0,0 l/m 0 min 0 min 238 W/m 16,1 km/h (3 Bft) 100,00 %
20.08.2019 16:36 23,6 C 22,8 C 22,2 C 52 % 1022,8 hPa 0,0 l/m 0 min 0 min 191 W/m 12,9 km/h (3 Bft) 100,00 %
20.08.2019 16:38 23,5 C 22,8 C 22,2 C 52 % 1022,9 hPa 0,0 l/m 0 min 0 min 160 W/m 9,7 km/h (2 Bft) 100,00 %
20.08.2019 16:40 23,4 C 22,2 C 21,7 C 52 % 1022,9 hPa 0,0 l/m 0 min 0 min 145 W/m 9,7 km/h (2 Bft) 100,00 %
20.08.2019 16:42 23,3 C 21,7 C 21,7 C 51 % 1023,0 hPa 0,0 l/m 0 min 0 min 142 W/m 9,7 km/h (2 Bft) 100,00 %
20.08.2019 16:44 23,1 C 21,7 C 21,1 C 52 % 1023,0 hPa 0,0 l/m 0 min 0 min 136 W/m 22,5 km/h (4 Bft) 100,00 %
20.08.2019 16:46 23,0 C 21,7 C 21,1 C 52 % 1023,1 hPa 0,0 l/m 0 min 0 min 128 W/m 12,9 km/h (3 Bft) 100,00 %
20.08.2019 16:48 22,9 C 21,7 C 21,1 C 54 % 1023,0 hPa 0,0 l/m 0 min 0 min 124 W/m 3,2 km/h (1 Bft) 100,00 %
20.08.2019 16:50 22,8 C 21,7 C 21,1 C 55 % 1022,9 hPa 0,0 l/m 0 min 0 min 130 W/m 3,2 km/h (1 Bft) 100,00 %
20.08.2019 16:52 22,8 C 22,2 C 21,1 C 54 % 1023,0 hPa 0,0 l/m 0 min 0 min 195 W/m 3,2 km/h (1 Bft) 100,00 %
20.08.2019 16:54 22,7 C 22,8 C 21,1 C 54 % 1023,0 hPa 0,0 l/m 0 min 0 min 251 W/m 6,4 km/h (2 Bft) 100,00 %
20.08.2019 16:56 22,7 C 22,2 C 21,1 C 53 % 1023,0 hPa 0,0 l/m 0 min 0 min 214 W/m 9,7 km/h (2 Bft) 100,00 %
20.08.2019 16:58 22,6 C 22,2 C 21,1 C 53 % 1023,0 hPa 0,0 l/m 0 min 0 min 197 W/m 9,7 km/h (2 Bft) 100,00 %
20.08.2019 17:00 22,6 C 22,2 C 21,1 C 53 % 1022,9 hPa 0,0 l/m 0 min 0 min 176 W/m 9,7 km/h (2 Bft) 100,00 %
20.08.2019 17:02 22,5 C 22,2 C 21,1 C 55 % 1023,1 hPa 0,0 l/m 0 min 0 min 200 W/m 3,2 km/h (1 Bft) 100,00 %
20.08.2019 17:04 22,4 C 22,8 C 21,7 C 55 % 1023,1 hPa 0,0 l/m 2 min 0 min 266 W/m 6,4 km/h (2 Bft) 100,00 %
20.08.2019 17:06 22,4 C 23,3 C 22,2 C 55 % 1023,1 hPa 0,0 l/m 2 min 0 min 408 W/m 16,1 km/h (3 Bft) 100,00 %
20.08.2019 17:08 22,4 C 23,3 C 22,2 C 56 % 1023,0 hPa 0,0 l/m 2 min 0 min 282 W/m 9,7 km/h (2 Bft) 97,87 %
20.08.2019 17:10 22,4 C 22,8 C 21,7 C 56 % 1023,1 hPa 0,0 l/m 0 min 0 min 155 W/m 9,7 km/h (2 Bft) 94,74 %
20.08.2019 17:12 22,4 C 22,2 C 21,7 C 55 % 1023,1 hPa 0,0 l/m 0 min 0 min 136 W/m 6,4 km/h (2 Bft) 95,74 %
20.08.2019 17:14 22,3 C 22,2 C 21,1 C 56 % 1023,1 hPa 0,0 l/m 0 min 0 min 134 W/m 6,4 km/h (2 Bft) 97,87 %
20.08.2019 17:16 22,3 C 22,2 C 21,1 C 55 % 1023,0 hPa 0,0 l/m 0 min 0 min 150 W/m 12,9 km/h (3 Bft) 98,18 %
20.08.2019 17:18 22,3 C 22,2 C 21,1 C 55 % 1023,1 hPa 0,0 l/m 0 min 0 min 183 W/m 9,7 km/h (2 Bft) 97,87 %
20.08.2019 17:20 22,3 C 22,8 C 21,1 C 55 % 1023,0 hPa 0,0 l/m 2 min 0 min 285 W/m 9,7 km/h (2 Bft) 97,37 %
20.08.2019 17:22 22,2 C 23,3 C 21,7 C 55 % 1023,0 hPa 0,0 l/m 2 min 0 min 350 W/m 9,7 km/h (2 Bft) 91,49 %
20.08.2019 17:24 22,2 C 23,9 C 21,7 C 56 % 1023,0 hPa 0,0 l/m 2 min 0 min 385 W/m 6,4 km/h (2 Bft) 97,87 %
20.08.2019 17:26 22,3 C 24,4 C 21,7 C 55 % 1023,0 hPa 0,0 l/m 2 min 0 min 410 W/m 9,7 km/h (2 Bft) 94,55 %
20.08.2019 17:28 22,3 C 24,4 C 21,7 C 55 % 1022,9 hPa 0,0 l/m 2 min 0 min 357 W/m 16,1 km/h (3 Bft) 97,37 %
20.08.2019 17:30 22,3 C 25,6 C 22,2 C 55 % 1022,9 hPa 0,0 l/m 2 min 0 min 495 W/m 16,1 km/h (3 Bft) 95,74 %
20.08.2019 17:32 22,4 C 26,1 C 22,2 C 56 % 1022,9 hPa 0,0 l/m 2 min 0 min 546 W/m 6,4 km/h (2 Bft) 95,74 %
20.08.2019 17:34 22,5 C 27,2 C 22,8 C 57 % 1022,9 hPa 0,0 l/m 2 min 0 min 559 W/m 6,4 km/h (2 Bft) 98,18 %
20.08.2019 17:36 22,6 C 26,7 C 22,8 C 55 % 1023,0 hPa 0,0 l/m 2 min 0 min 537 W/m 16,1 km/h (3 Bft) 97,37 %
20.08.2019 17:38 22,7 C 25,6 C 22,8 C 54 % 1023,0 hPa 0,0 l/m 2 min 0 min 497 W/m 16,1 km/h (3 Bft) 95,83 %
20.08.2019 17:40 22,7 C 26,1 C 22,2 C 54 % 1022,9 hPa 0,0 l/m 2 min 0 min 476 W/m 12,9 km/h (3 Bft) 95,65 %
20.08.2019 17:42 22,8 C 24,4 C 21,7 C 53 % 1023,0 hPa 0,0 l/m 2 min 0 min 328 W/m 16,1 km/h (3 Bft) 93,62 %
20.08.2019 17:44 22,8 C 23,3 C 21,7 C 53 % 1022,9 hPa 0,0 l/m 0 min 0 min 175 W/m 16,1 km/h (3 Bft) 94,55 %
20.08.2019 17:46 22,8 C 22,8 C 21,1 C 54 % 1022,9 hPa 0,0 l/m 0 min 0 min 170 W/m 6,4 km/h (2 Bft) 94,74 %
20.08.2019 17:48 22,8 C 22,8 C 21,1 C 55 % 1022,9 hPa 0,0 l/m 0 min 0 min 157 W/m 3,2 km/h (1 Bft) 95,83 %
20.08.2019 17:50 22,8 C 23,3 C 21,1 C 55 % 1022,8 hPa 0,0 l/m 0 min 0 min 172 W/m 0,0 km/h (0 Bft) 97,87 %
20.08.2019 17:52 22,8 C 23,9 C 21,1 C 55 % 1022,9 hPa 0,0 l/m 2 min 0 min 375 W/m 3,2 km/h (1 Bft) 96,36 %
20.08.2019 17:54 22,8 C 23,3 C 21,1 C 56 % 1022,8 hPa 0,0 l/m 0 min 0 min 162 W/m 0,0 km/h (0 Bft) 97,37 %
20.08.2019 17:56 22,8 C 23,3 C 21,1 C 58 % 1022,9 hPa 0,0 l/m 0 min 0 min 137 W/m 3,2 km/h (1 Bft) 97,87 %
20.08.2019 17:58 22,8 C 22,8 C 21,1 C 55 % 1022,9 hPa 0,0 l/m 0 min 0 min 148 W/m 3,2 km/h (1 Bft) 95,74 %
20.08.2019 18:00 22,8 C 22,8 C 20,6 C 56 % 1022,8 hPa 0,0 l/m 0 min 0 min 186 W/m 0,0 km/h (0 Bft) 98,18 %
20.08.2019 18:02 22,8 C 23,9 C 21,1 C 58 % 1022,8 hPa 0,0 l/m 2 min 0 min 274 W/m 0,0 km/h (0 Bft) 97,37 %
20.08.2019 18:04 22,8 C 25,6 C 21,1 C 58 % 1022,8 hPa 0,0 l/m 2 min 0 min 320 W/m 0,0 km/h (0 Bft) 97,87 %
20.08.2019 18:08 22,8 C 23,9 C 21,1 C 55 % 1022,9 hPa 0,0 l/m 4 min 0 min 298 W/m 6,4 km/h (2 Bft) 96,81 %
20.08.2019 18:10 22,8 C 23,3 C 21,1 C 54 % 1022,9 hPa 0,0 l/m 0 min 0 min 156 W/m 6,4 km/h (2 Bft) 95,74 %
20.08.2019 18:12 22,8 C 22,8 C 21,1 C 54 % 1022,9 hPa 0,0 l/m 0 min 0 min 128 W/m 12,9 km/h (3 Bft) 97,87 %
20.08.2019 18:14 22,8 C 22,2 C 21,1 C 55 % 1023,0 hPa 0,0 l/m 0 min 0 min 107 W/m 6,4 km/h (2 Bft) 97,87 %
20.08.2019 18:16 22,7 C 21,7 C 21,1 C 53 % 1023,1 hPa 0,0 l/m 0 min 0 min 98 W/m 6,4 km/h (2 Bft) 97,83 %
20.08.2019 18:18 22,7 C 21,7 C 21,1 C 53 % 1023,0 hPa 0,0 l/m 0 min 0 min 96 W/m 6,4 km/h (2 Bft) 94,64 %
20.08.2019 18:20 22,6 C 21,7 C 20,6 C 54 % 1023,0 hPa 0,0 l/m 0 min 0 min 93 W/m 0,0 km/h (0 Bft) 97,83 %
20.08.2019 18:22 22,6 C 21,7 C 20,6 C 53 % 1023,0 hPa 0,0 l/m 0 min 0 min 88 W/m 6,4 km/h (2 Bft) 100,00 %
20.08.2019 18:24 22,5 C 21,7 C 20,6 C 53 % 1023,0 hPa 0,0 l/m 0 min 0 min 92 W/m 3,2 km/h (1 Bft) 95,83 %
20.08.2019 18:26 22,5 C 21,7 C 21,1 C 54 % 1023,1 hPa 0,0 l/m 0 min 0 min 91 W/m 0,0 km/h (0 Bft) 97,87 %
20.08.2019 18:28 22,4 C 21,7 C 21,1 C 55 % 1023,1 hPa 0,0 l/m 0 min 0 min 88 W/m 3,2 km/h (1 Bft) 98,18 %
20.08.2019 18:30 22,4 C 21,1 C 20,6 C 55 % 1023,1 hPa 0,0 l/m 0 min 0 min 83 W/m 6,4 km/h (2 Bft) 97,37 %
20.08.2019 18:32 22,4 C 21,1 C 20,6 C 55 % 1023,2 hPa 0,0 l/m 0 min 0 min 78 W/m 6,4 km/h (2 Bft) 97,87 %
20.08.2019 18:34 22,3 C 21,1 C 20,6 C 54 % 1023,1 hPa 0,0 l/m 0 min 0 min 69 W/m 9,7 km/h (2 Bft) 95,74 %
20.08.2019 18:36 22,3 C 21,1 C 20,6 C 54 % 1023,3 hPa 0,0 l/m 0 min 0 min 57 W/m 16,1 km/h (3 Bft) 98,18 %
20.08.2019 18:38 22,2 C 20,6 C 20,6 C 54 % 1023,4 hPa 0,0 l/m 0 min 0 min 51 W/m 6,4 km/h (2 Bft) 100,00 %
20.08.2019 18:40 22,1 C 20,6 C 20,0 C 56 % 1023,6 hPa 0,0 l/m 0 min 0 min 46 W/m 16,1 km/h (3 Bft) 100,00 %
20.08.2019 18:42 21,9 C 20,0 C 20,0 C 58 % 1023,6 hPa 0,0 l/m 0 min 0 min 41 W/m 25,7 km/h (4 Bft) 100,00 %
20.08.2019 18:44 21,7 C 19,4 C 19,4 C 59 % 1023,7 hPa 0,0 l/m 0 min 0 min 37 W/m 9,7 km/h (2 Bft) 100,00 %
20.08.2019 18:46 21,6 C 19,4 C 19,4 C 61 % 1023,7 hPa 0,0 l/m 0 min 0 min 33 W/m 12,9 km/h (3 Bft) 97,37 %
20.08.2019 18:48 21,4 C 19,4 C 18,9 C 61 % 1023,7 hPa 0,0 l/m 0 min 0 min 33 W/m 9,7 km/h (2 Bft) 97,92 %
20.08.2019 18:50 21,3 C 18,9 C 18,9 C 62 % 1023,8 hPa 0,0 l/m 0 min 0 min 35 W/m 9,7 km/h (2 Bft) 95,74 %
20.08.2019 18:52 21,1 C 18,9 C 18,9 C 62 % 1023,8 hPa 0,0 l/m 0 min 0 min 39 W/m 16,1 km/h (3 Bft) 97,83 %
20.08.2019 18:54 20,9 C 18,9 C 18,3 C 62 % 1023,8 hPa 0,0 l/m 0 min 0 min 44 W/m 19,3 km/h (3 Bft) 97,87 %
20.08.2019 18:56 20,8 C 18,9 C 18,3 C 63 % 1023,8 hPa 0,0 l/m 0 min 0 min 49 W/m 12,9 km/h (3 Bft) 98,18 %
20.08.2019 18:58 20,7 C 18,9 C 18,3 C 63 % 1023,8 hPa 0,0 l/m 0 min 0 min 53 W/m 22,5 km/h (4 Bft) 97,37 %
20.08.2019 19:00 20,6 C 18,3 C 18,3 C 64 % 1023,8 hPa 0,0 l/m 0 min 0 min 61 W/m 12,9 km/h (3 Bft) 97,92 %
20.08.2019 19:02 20,4 C 18,3 C 18,3 C 64 % 1023,8 hPa 0,0 l/m 0 min 0 min 66 W/m 9,7 km/h (2 Bft) 97,83 %
20.08.2019 19:04 20,3 C 18,9 C 18,3 C 65 % 1023,8 hPa 0,0 l/m 0 min 0 min 69 W/m 3,2 km/h (1 Bft) 98,21 %
20.08.2019 19:06 20,2 C 18,9 C 18,3 C 65 % 1023,9 hPa 0,0 l/m 0 min 0 min 70 W/m 6,4 km/h (2 Bft) 97,83 %
20.08.2019 19:08 20,2 C 18,9 C 18,3 C 66 % 1023,9 hPa 0,0 l/m 0 min 0 min 72 W/m 9,7 km/h (2 Bft) 95,74 %
20.08.2019 19:10 20,1 C 18,9 C 18,3 C 66 % 1023,9 hPa 0,0 l/m 0 min 0 min 78 W/m 6,4 km/h (2 Bft) 97,87 %
20.08.2019 19:12 20,0 C 18,9 C 18,3 C 67 % 1023,9 hPa 0,0 l/m 0 min 0 min 84 W/m 3,2 km/h (1 Bft) 97,37 %
20.08.2019 19:14 19,9 C 18,9 C 18,3 C 66 % 1024,0 hPa 0,0 l/m 0 min 0 min 84 W/m 19,3 km/h (3 Bft) 97,87 %
20.08.2019 19:16 19,8 C 18,9 C 18,3 C 67 % 1024,0 hPa 0,0 l/m 0 min 0 min 87 W/m 9,7 km/h (2 Bft) 97,87 %
20.08.2019 19:18 19,7 C 18,3 C 17,8 C 67 % 1024,0 hPa 0,0 l/m 0 min 0 min 80 W/m 12,9 km/h (3 Bft) 96,36 %
20.08.2019 19:20 19,6 C 18,3 C 17,8 C 66 % 1024,0 hPa 0,0 l/m 0 min 0 min 79 W/m 12,9 km/h (3 Bft) 97,37 %
20.08.2019 19:22 19,5 C 18,3 C 17,8 C 67 % 1024,0 hPa 0,0 l/m 0 min 0 min 79 W/m 12,9 km/h (3 Bft) 95,74 %
20.08.2019 19:24 19,4 C 18,3 C 17,8 C 68 % 1024,0 hPa 0,0 l/m 0 min 0 min 86 W/m 22,5 km/h (4 Bft) 97,92 %
20.08.2019 19:26 19,4 C 18,3 C 17,8 C 68 % 1024,1 hPa 0,0 l/m 0 min 0 min 96 W/m 6,4 km/h (2 Bft) 97,83 %
20.08.2019 19:28 19,3 C 18,9 C 17,8 C 68 % 1024,1 hPa 0,0 l/m 2 min 0 min 109 W/m 6,4 km/h (2 Bft) 96,43 %
20.08.2019 19:30 19,3 C 18,9 C 17,8 C 69 % 1024,2 hPa 0,0 l/m 2 min 0 min 117 W/m 3,2 km/h (1 Bft) 97,37 %
20.08.2019 19:32 19,2 C 18,3 C 17,8 C 69 % 1024,2 hPa 0,0 l/m 2 min 0 min 113 W/m 12,9 km/h (3 Bft) 97,83 %
20.08.2019 19:34 19,2 C 18,3 C 17,8 C 69 % 1024,2 hPa 0,0 l/m 2 min 0 min 99 W/m 6,4 km/h (2 Bft) 97,87 %
20.08.2019 19:36 19,1 C 18,3 C 17,8 C 70 % 1024,2 hPa 0,0 l/m 2 min 0 min 84 W/m 9,7 km/h (2 Bft) 97,87 %
20.08.2019 19:38 19,1 C 18,3 C 17,8 C 70 % 1024,2 hPa 0,0 l/m 0 min 0 min 73 W/m 16,1 km/h (3 Bft) 97,87 %
20.08.2019 19:40 19,0 C 17,8 C 17,2 C 70 % 1024,1 hPa 0,0 l/m 0 min 0 min 63 W/m 9,7 km/h (2 Bft) 97,87 %
20.08.2019 19:42 18,9 C 17,8 C 17,2 C 70 % 1024,2 hPa 0,0 l/m 0 min 0 min 55 W/m 9,7 km/h (2 Bft) 97,87 %
20.08.2019 19:44 18,9 C 17,8 C 17,2 C 70 % 1024,2 hPa 0,0 l/m 0 min 0 min 51 W/m 3,2 km/h (1 Bft) 98,18 %
20.08.2019 19:46 18,9 C 17,2 C 17,2 C 71 % 1024,3 hPa 0,0 l/m 0 min 0 min 49 W/m 0,0 km/h (0 Bft) 97,37 %
20.08.2019 19:48 18,8 C 17,2 C 16,7 C 71 % 1024,3 hPa 0,0 l/m 0 min 0 min 45 W/m 6,4 km/h (2 Bft) 95,83 %
20.08.2019 19:50 18,8 C 17,2 C 16,7 C 72 % 1024,2 hPa 0,0 l/m 0 min 0 min 43 W/m 0,0 km/h (0 Bft) 97,83 %
20.08.2019 19:52 18,8 C 17,2 C 16,7 C 72 % 1024,3 hPa 0,0 l/m 0 min 0 min 41 W/m 0,0 km/h (0 Bft) 98,18 %
20.08.2019 19:53 18,7 C 17,2 C 16,7 C 72 % 1024,3 hPa 0,0 l/m 0 min 0 min 39 W/m 0,0 km/h (0 Bft) 95,74 %
20.08.2019 19:56 18,7 C 16,7 C 16,7 C 72 % 1024,4 hPa 0,0 l/m 0 min 0 min 36 W/m 6,4 km/h (2 Bft) 98,00 %
20.08.2019 19:58 18,6 C 16,7 C 16,7 C 72 % 1024,4 hPa 0,0 l/m 0 min 0 min 35 W/m 0,0 km/h (0 Bft) 97,14 %
20.08.2019 20:00 18,6 C 16,7 C 16,7 C 72 % 1024,4 hPa 0,0 l/m 0 min 0 min 33 W/m 0,0 km/h (0 Bft) 97,87 %
20.08.2019 20:02 18,6 C 16,7 C 16,7 C 72 % 1024,4 hPa 0,0 l/m 0 min 0 min 32 W/m 6,4 km/h (2 Bft) 96,61 %
20.08.2019 20:04 18,5 C 16,7 C 16,1 C 72 % 1024,4 hPa 0,0 l/m 0 min 0 min 30 W/m 0,0 km/h (0 Bft) 97,83 %
20.08.2019 20:06 18,4 C 16,7 C 16,1 C 72 % 1024,4 hPa 0,0 l/m 0 min 0 min 30 W/m 0,0 km/h (0 Bft) 97,87 %
20.08.2019 20:08 18,4 C 16,7 C 16,1 C 72 % 1024,4 hPa 0,0 l/m 0 min 0 min 30 W/m 0,0 km/h (0 Bft) 97,14 %
20.08.2019 20:10 18,4 C 16,7 C 16,1 C 73 % 1024,4 hPa 0,0 l/m 0 min 0 min 30 W/m 0,0 km/h (0 Bft) 97,87 %
20.08.2019 20:12 18,3 C 16,1 C 16,1 C 73 % 1024,4 hPa 0,0 l/m 0 min 0 min 29 W/m 0,0 km/h (0 Bft) 98,31 %
20.08.2019 20:14 18,3 C 16,1 C 16,1 C 73 % 1024,4 hPa 0,0 l/m 0 min 0 min 27 W/m 0,0 km/h (0 Bft) 97,14 %
20.08.2019 20:16 18,3 C 16,1 C 15,6 C 73 % 1024,4 hPa 0,0 l/m 0 min 0 min 25 W/m 0,0 km/h (0 Bft) 94,83 %
20.08.2019 20:18 18,2 C 16,1 C 15,6 C 74 % 1024,5 hPa 0,0 l/m 0 min 0 min 24 W/m 0,0 km/h (0 Bft) 97,87 %
20.08.2019 20:20 18,2 C 16,1 C 15,6 C 74 % 1024,5 hPa 0,0 l/m 0 min 0 min 21 W/m 0,0 km/h (0 Bft) 97,14 %
20.08.2019 20:22 18,2 C 15,6 C 15,6 C 75 % 1024,5 hPa 0,0 l/m 0 min 0 min 21 W/m 6,4 km/h (2 Bft) 97,87 %
20.08.2019 20:24 18,1 C 15,6 C 15,6 C 74 % 1024,5 hPa 0,0 l/m 0 min 0 min 20 W/m 9,7 km/h (2 Bft) 95,74 %
20.08.2019 20:26 18,1 C 15,6 C 15,6 C 75 % 1024,6 hPa 0,0 l/m 0 min 0 min 19 W/m 0,0 km/h (0 Bft) 95,74 %
20.08.2019 20:28 18,0 C 15,6 C 15,6 C 75 % 1024,6 hPa 0,0 l/m 0 min 0 min 18 W/m 0,0 km/h (0 Bft) 96,55 %
20.08.2019 20:30 17,9 C 15,6 C 15,6 C 75 % 1024,5 hPa 0,0 l/m 0 min 0 min 16 W/m 0,0 km/h (0 Bft) 97,87 %
20.08.2019 20:32 17,9 C 15,6 C 15,0 C 75 % 1024,6 hPa 0,0 l/m 0 min 0 min 15 W/m 0,0 km/h (0 Bft) 97,14 %
20.08.2019 20:34 17,9 C 15,6 C 15,0 C 75 % 1024,6 hPa 0,0 l/m 0 min 0 min 13 W/m 0,0 km/h (0 Bft) 97,87 %
20.08.2019 20:36 17,8 C 15,6 C 15,0 C 75 % 1024,6 hPa 0,0 l/m 0 min 0 min 12 W/m 0,0 km/h (0 Bft) 98,00 %
20.08.2019 20:38 17,8 C 15,6 C 15,0 C 75 % 1024,7 hPa 0,0 l/m 0 min 0 min 10 W/m 0,0 km/h (0 Bft) 95,74 %
20.08.2019 20:40 17,7 C 15,6 C 15,0 C 75 % 1024,6 hPa 0,0 l/m 0 min 0 min 8 W/m 0,0 km/h (0 Bft) 97,87 %
20.08.2019 20:42 17,7 C 15,0 C 15,0 C 75 % 1024,7 hPa 0,0 l/m 0 min 0 min 6 W/m 0,0 km/h (0 Bft) 97,87 %
20.08.2019 20:44 17,7 C 15,0 C 14,4 C 75 % 1024,7 hPa 0,0 l/m 0 min 0 min 5 W/m 0,0 km/h (0 Bft) 97,87 %
20.08.2019 20:46 17,6 C 15,0 C 14,4 C 75 % 1024,8 hPa 0,0 l/m 0 min 0 min 4 W/m 0,0 km/h (0 Bft) 95,65 %
20.08.2019 20:48 17,6 C 15,0 C 14,4 C 76 % 1024,7 hPa 0,0 l/m 0 min 0 min 0 W/m 0,0 km/h (0 Bft) 95,74 %
20.08.2019 20:50 17,5 C 15,0 C 14,4 C 76 % 1024,7 hPa 0,0 l/m 0 min 0 min 0 W/m 0,0 km/h (0 Bft) 97,87 %
20.08.2019 20:52 17,4 C 14,4 C 14,4 C 76 % 1024,9 hPa 0,0 l/m 0 min 0 min 0 W/m 0,0 km/h (0 Bft) 95,74 %
20.08.2019 20:54 17,4 C 14,4 C 14,4 C 76 % 1024,8 hPa 0,0 l/m 0 min 0 min 0 W/m 0,0 km/h (0 Bft) 97,87 %
20.08.2019 20:56 17,3 C 14,4 C 13,9 C 76 % 1024,8 hPa 0,0 l/m 0 min 0 min 0 W/m 0,0 km/h (0 Bft) 97,87 %
20.08.2019 20:58 17,3 C 14,4 C 13,9 C 76 % 1024,9 hPa 0,0 l/m 0 min 0 min 0 W/m 0,0 km/h (0 Bft) 97,83 %
20.08.2019 21:00 17,2 C 14,4 C 13,9 C 77 % 1024,9 hPa 0,0 l/m 0 min 0 min 0 W/m 0,0 km/h (0 Bft) 97,87 %
20.08.2019 21:02 17,2 C 13,9 C 13,9 C 77 % 1025,0 hPa 0,0 l/m 0 min 0 min 0 W/m 0,0 km/h (0 Bft) 97,87 %
20.08.2019 21:04 17,1 C 13,9 C 13,9 C 77 % 1025,0 hPa 0,0 l/m 0 min 0 min 0 W/m 0,0 km/h (0 Bft) 97,87 %
20.08.2019 21:06 17,1 C 13,9 C 13,9 C 77 % 1025,1 hPa 0,0 l/m 0 min 0 min 0 W/m 0,0 km/h (0 Bft) 97,87 %
20.08.2019 21:08 17,0 C 13,9 C 13,9 C 77 % 1025,1 hPa 0,0 l/m 0 min 0 min 0 W/m 0,0 km/h (0 Bft) 95,74 %
20.08.2019 21:10 16,9 C 13,9 C 13,3 C 77 % 1025,1 hPa 0,0 l/m 0 min 0 min 0 W/m 0,0 km/h (0 Bft) 97,83 %
20.08.2019 21:12 16,9 C 13,9 C 13,3 C 77 % 1025,1 hPa 0,0 l/m 0 min 0 min 0 W/m 0,0 km/h (0 Bft) 93,62 %
20.08.2019 21:14 16,8 C 13,9 C 13,3 C 77 % 1025,2 hPa 0,0 l/m 0 min 0 min 0 W/m 0,0 km/h (0 Bft) 95,74 %
20.08.2019 21:16 16,8 C 13,9 C 13,3 C 77 % 1025,2 hPa 0,0 l/m 0 min 0 min 0 W/m 0,0 km/h (0 Bft) 97,87 %
20.08.2019 21:18 16,7 C 13,9 C 13,3 C 77 % 1025,2 hPa 0,0 l/m 0 min 0 min 0 W/m 0,0 km/h (0 Bft) 97,87 %
20.08.2019 21:20 16,7 C 13,9 C 13,3 C 77 % 1025,3 hPa 0,0 l/m 0 min 0 min 0 W/m 0,0 km/h (0 Bft) 100,00 %
20.08.2019 21:22 16,6 C 13,3 C 13,3 C 77 % 1025,3 hPa 0,0 l/m 0 min 0 min 0 W/m 0,0 km/h (0 Bft) 100,00 %
20.08.2019 21:24 16,6 C 13,3 C 13,3 C 78 % 1025,4 hPa 0,0 l/m 0 min 0 min 0 W/m 0,0 km/h (0 Bft) 100,00 %
20.08.2019 21:26 16,5 C 13,3 C 13,3 C 78 % 1025,4 hPa 0,0 l/m 0 min 0 min 0 W/m 0,0 km/h (0 Bft) 100,00 %
20.08.2019 21:28 16,4 C 13,3 C 13,3 C 78 % 1025,4 hPa 0,0 l/m 0 min 0 min 0 W/m 0,0 km/h (0 Bft) 95,74 %
20.08.2019 21:30 16,4 C 13,3 C 13,3 C 78 % 1025,4 hPa 0,0 l/m 0 min 0 min 0 W/m 0,0 km/h (0 Bft) 100,00 %
20.08.2019 21:32 16,3 C 13,3 C 13,3 C 78 % 1025,5 hPa 0,0 l/m 0 min 0 min 0 W/m 0,0 km/h (0 Bft) 100,00 %
20.08.2019 21:34 16,3 C 13,3 C 12,8 C 78 % 1025,5 hPa 0,0 l/m 0 min 0 min 0 W/m 0,0 km/h (0 Bft) 100,00 %
20.08.2019 21:36 16,2 C 13,3 C 12,8 C 78 % 1025,5 hPa 0,0 l/m 0 min 0 min 0 W/m 0,0 km/h (0 Bft) 100,00 %
20.08.2019 21:38 16,2 C 13,3 C 12,8 C 78 % 1025,5 hPa 0,0 l/m 0 min 0 min 0 W/m 0,0 km/h (0 Bft) 97,87 %
20.08.2019 21:40 16,1 C 12,8 C 12,8 C 78 % 1025,5 hPa 0,0 l/m 0 min 0 min 0 W/m 0,0 km/h (0 Bft) 100,00 %
20.08.2019 21:42 16,1 C 12,8 C 12,8 C 79 % 1025,5 hPa 0,0 l/m 0 min 0 min 0 W/m 0,0 km/h (0 Bft) 100,00 %
20.08.2019 21:44 16,0 C 13,3 C 12,8 C 79 % 1025,5 hPa 0,0 l/m 0 min 0 min 0 W/m 0,0 km/h (0 Bft) 100,00 %
20.08.2019 21:46 15,9 C 13,3 C 12,8 C 79 % 1025,6 hPa 0,0 l/m 0 min 0 min 0 W/m 0,0 km/h (0 Bft) 100,00 %
20.08.2019 21:48 15,9 C 12,8 C 12,8 C 79 % 1025,6 hPa 0,0 l/m 0 min 0 min 0 W/m 0,0 km/h (0 Bft) 97,87 %
20.08.2019 21:50 15,8 C 13,3 C 12,8 C 79 % 1025,6 hPa 0,0 l/m 0 min 0 min 0 W/m 0,0 km/h (0 Bft) 100,00 %
20.08.2019 21:52 15,8 C 13,3 C 12,8 C 80 % 1025,6 hPa 0,0 l/m 0 min 0 min 0 W/m 0,0 km/h (0 Bft) 100,00 %
20.08.2019 21:54 15,7 C 13,3 C 12,8 C 80 % 1025,6 hPa 0,0 l/m 0 min 0 min 0 W/m 0,0 km/h (0 Bft) 100,00 %
20.08.2019 21:56 15,7 C 13,3 C 12,8 C 80 % 1025,6 hPa 0,0 l/m 0 min 0 min 0 W/m 0,0 km/h (0 Bft) 100,00 %
20.08.2019 21:58 15,6 C 13,3 C 13,3 C 80 % 1025,6 hPa 0,0 l/m 0 min 0 min 0 W/m 0,0 km/h (0 Bft) 100,00 %
20.08.2019 22:00 15,6 C 13,3 C 13,3 C 80 % 1025,6 hPa 0,0 l/m 0 min 0 min 0 W/m 0,0 km/h (0 Bft) 100,00 %
20.08.2019 22:02 15,5 C 13,3 C 13,3 C 80 % 1025,7 hPa 0,0 l/m 0 min 0 min 0 W/m 0,0 km/h (0 Bft) 97,87 %
20.08.2019 22:04 15,5 C 13,3 C 13,3 C 80 % 1025,7 hPa 0,0 l/m 0 min 0 min 0 W/m 0,0 km/h (0 Bft) 100,00 %
20.08.2019 22:06 15,4 C 13,3 C 12,8 C 80 % 1025,6 hPa 0,0 l/m 0 min 0 min 0 W/m 0,0 km/h (0 Bft) 100,00 %
20.08.2019 22:08 15,4 C 13,3 C 12,8 C 81 % 1025,7 hPa 0,0 l/m 0 min 0 min 0 W/m 0,0 km/h (0 Bft) 97,83 %
20.08.2019 22:10 15,4 C 13,3 C 12,8 C 81 % 1025,6 hPa 0,0 l/m 0 min 0 min 0 W/m 0,0 km/h (0 Bft) 100,00 %
20.08.2019 22:12 15,3 C 12,8 C 12,8 C 81 % 1025,6 hPa 0,0 l/m 0 min 0 min 0 W/m 0,0 km/h (0 Bft) 100,00 %
20.08.2019 22:14 15,3 C 12,8 C 12,8 C 81 % 1025,6 hPa 0,0 l/m 0 min 0 min 0 W/m 0,0 km/h (0 Bft) 100,00 %
20.08.2019 22:16 15,3 C 12,8 C 12,8 C 81 % 1025,6 hPa 0,0 l/m 0 min 0 min 0 W/m 0,0 km/h (0 Bft) 100,00 %
20.08.2019 22:18 15,2 C 12,8 C 12,8 C 81 % 1025,7 hPa 0,0 l/m 0 min 0 min 0 W/m 0,0 km/h (0 Bft) 97,87 %
20.08.2019 22:20 15,2 C 12,8 C 12,2 C 82 % 1025,7 hPa 0,0 l/m 0 min 0 min 0 W/m 0,0 km/h (0 Bft) 100,00 %
20.08.2019 22:22 15,2 C 12,8 C 12,2 C 82 % 1025,7 hPa 0,0 l/m 0 min 0 min 0 W/m 0,0 km/h (0 Bft) 100,00 %
20.08.2019 22:24 15,1 C 12,8 C 12,2 C 82 % 1025,7 hPa 0,0 l/m 0 min 0 min 0 W/m 0,0 km/h (0 Bft) 100,00 %
20.08.2019 22:26 15,1 C 12,2 C 12,2 C 82 % 1025,7 hPa 0,0 l/m 0 min 0 min 0 W/m 0,0 km/h (0 Bft) 100,00 %
20.08.2019 22:28 15,1 C 12,2 C 12,2 C 82 % 1025,7 hPa 0,0 l/m 0 min 0 min 0 W/m 0,0 km/h (0 Bft) 97,87 %
20.08.2019 22:30 15,0 C 12,2 C 12,2 C 83 % 1025,7 hPa 0,0 l/m 0 min 0 min 0 W/m 0,0 km/h (0 Bft) 100,00 %
20.08.2019 22:32 14,9 C 12,2 C 12,2 C 83 % 1025,7 hPa 0,0 l/m 0 min 0 min 0 W/m 0,0 km/h (0 Bft) 97,83 %
20.08.2019 22:34 14,9 C 12,2 C 12,2 C 83 % 1025,7 hPa 0,0 l/m 0 min 0 min 0 W/m 0,0 km/h (0 Bft) 100,00 %
20.08.2019 22:36 14,9 C 12,2 C 12,2 C 83 % 1025,8 hPa 0,0 l/m 0 min 0 min 0 W/m 0,0 km/h (0 Bft) 100,00 %
20.08.2019 22:38 14,8 C 12,2 C 12,2 C 83 % 1025,8 hPa 0,0 l/m 0 min 0 min 0 W/m 0,0 km/h (0 Bft) 100,00 %
20.08.2019 22:40 14,8 C 12,2 C 12,2 C 83 % 1025,8 hPa 0,0 l/m 0 min 0 min 0 W/m 0,0 km/h (0 Bft) 100,00 %
20.08.2019 22:42 14,8 C 12,2 C 11,7 C 84 % 1025,8 hPa 0,0 l/m 0 min 0 min 0 W/m 0,0 km/h (0 Bft) 100,00 %
20.08.2019 22:44 14,7 C 12,2 C 11,7 C 84 % 1025,8 hPa 0,0 l/m 0 min 0 min 0 W/m 0,0 km/h (0 Bft) 97,83 %
20.08.2019 22:46 14,7 C 12,2 C 11,7 C 84 % 1025,9 hPa 0,0 l/m 0 min 0 min 0 W/m 0,0 km/h (0 Bft) 100,00 %
20.08.2019 22:48 14,6 C 12,2 C 11,7 C 84 % 1025,9 hPa 0,0 l/m 0 min 0 min 0 W/m 0,0 km/h (0 Bft) 100,00 %
20.08.2019 22:50 14,6 C 12,2 C 11,7 C 84 % 1025,9 hPa 0,0 l/m 0 min 0 min 0 W/m 0,0 km/h (0 Bft) 97,87 %
20.08.2019 22:52 14,6 C 12,2 C 11,7 C 85 % 1025,9 hPa 0,0 l/m 0 min 0 min 0 W/m 0,0 km/h (0 Bft) 95,74 %
20.08.2019 22:54 14,5 C 12,2 C 11,7 C 85 % 1026,0 hPa 0,0 l/m 0 min 0 min 0 W/m 0,0 km/h (0 Bft) 93,62 %
20.08.2019 22:56 14,4 C 12,2 C 11,7 C 85 % 1026,0 hPa 0,0 l/m 0 min 0 min 0 W/m 0,0 km/h (0 Bft) 95,65 %
20.08.2019 22:58 14,4 C 11,7 C 11,7 C 85 % 1026,1 hPa 0,0 l/m 0 min 0 min 0 W/m 0,0 km/h (0 Bft) 95,74 %
20.08.2019 23:00 14,3 C 11,7 C 11,7 C 85 % 1026,2 hPa 0,0 l/m 0 min 0 min 0 W/m 0,0 km/h (0 Bft) 95,74 %
20.08.2019 23:02 14,3 C 12,2 C 11,7 C 85 % 1026,2 hPa 0,0 l/m 0 min 0 min 0 W/m 0,0 km/h (0 Bft) 93,62 %
20.08.2019 23:04 14,2 C 12,2 C 11,7 C 85 % 1026,2 hPa 0,0 l/m 0 min 0 min 0 W/m 0,0 km/h (0 Bft) 93,62 %
20.08.2019 23:06 14,2 C 11,7 C 11,7 C 85 % 1026,2 hPa 0,0 l/m 0 min 0 min 0 W/m 0,0 km/h (0 Bft) 93,48 %
20.08.2019 23:08 14,2 C 11,7 C 11,7 C 86 % 1026,1 hPa 0,0 l/m 0 min 0 min 0 W/m 0,0 km/h (0 Bft) 93,62 %
20.08.2019 23:10 14,2 C 12,2 C 11,7 C 86 % 1026,1 hPa 0,0 l/m 0 min 0 min 0 W/m 0,0 km/h (0 Bft) 93,62 %
20.08.2019 23:12 14,2 C 12,2 C 11,7 C 86 % 1026,1 hPa 0,0 l/m 0 min 0 min 0 W/m 0,0 km/h (0 Bft) 91,49 %
20.08.2019 23:14 14,2 C 12,2 C 11,7 C 86 % 1026,2 hPa 0,0 l/m 0 min 0 min 0 W/m 0,0 km/h (0 Bft) 93,62 %
20.08.2019 23:16 14,2 C 12,2 C 11,7 C 86 % 1026,2 hPa 0,0 l/m 0 min 0 min 0 W/m 0,0 km/h (0 Bft) 93,62 %
20.08.2019 23:18 14,1 C 12,2 C 11,7 C 86 % 1026,2 hPa 0,0 l/m 0 min 0 min 0 W/m 0,0 km/h (0 Bft) 93,48 %
20.08.2019 23:20 14,1 C 12,2 C 11,7 C 86 % 1026,2 hPa 0,0 l/m 0 min 0 min 0 W/m 0,0 km/h (0 Bft) 93,62 %
20.08.2019 23:22 14,0 C 12,2 C 12,2 C 86 % 1026,2 hPa 0,0 l/m 0 min 0 min 0 W/m 0,0 km/h (0 Bft) 91,49 %
20.08.2019 23:24 13,9 C 12,2 C 12,2 C 86 % 1026,2 hPa 0,0 l/m 0 min 0 min 0 W/m 0,0 km/h (0 Bft) 91,49 %
20.08.2019 23:26 13,9 C 12,2 C 12,2 C 85 % 1026,2 hPa 0,0 l/m 0 min 0 min 0 W/m 0,0 km/h (0 Bft) 93,62 %
20.08.2019 23:28 13,9 C 12,2 C 12,2 C 85 % 1026,2 hPa 0,0 l/m 0 min 0 min 0 W/m 0,0 km/h (0 Bft) 93,62 %
20.08.2019 23:30 13,9 C 12,2 C 12,2 C 85 % 1026,3 hPa 0,0 l/m 0 min 0 min 0 W/m 0,0 km/h (0 Bft) 95,65 %
20.08.2019 23:32 13,8 C 12,2 C 12,2 C 85 % 1026,2 hPa 0,0 l/m 0 min 0 min 0 W/m 0,0 km/h (0 Bft) 95,74 %
20.08.2019 23:34 13,8 C 12,2 C 12,2 C 86 % 1026,3 hPa 0,0 l/m 0 min 0 min 0 W/m 0,0 km/h (0 Bft) 95,74 %
20.08.2019 23:36 13,8 C 12,8 C 12,2 C 86 % 1026,3 hPa 0,0 l/m 0 min 0 min 0 W/m 0,0 km/h (0 Bft) 95,74 %
20.08.2019 23:38 13,8 C 12,8 C 12,2 C 86 % 1026,3 hPa 0,0 l/m 0 min 0 min 0 W/m 0,0 km/h (0 Bft) 95,74 %
20.08.2019 23:40 13,8 C 12,8 C 12,2 C 86 % 1026,4 hPa 0,0 l/m 0 min 0 min 0 W/m 0,0 km/h (0 Bft) 95,74 %
20.08.2019 23:42 13,8 C 12,8 C 12,2 C 86 % 1026,4 hPa 0,0 l/m 0 min 0 min 0 W/m 0,0 km/h (0 Bft) 95,65 %
20.08.2019 23:44 13,8 C 12,8 C 12,8 C 87 % 1026,3 hPa 0,0 l/m 0 min 0 min 0 W/m 0,0 km/h (0 Bft) 93,62 %
20.08.2019 23:46 13,8 C 12,8 C 12,8 C 87 % 1026,4 hPa 0,0 l/m 0 min 0 min 0 W/m 0,0 km/h (0 Bft) 93,62 %
20.08.2019 23:48 13,8 C 12,8 C 12,8 C 87 % 1026,4 hPa 0,0 l/m 0 min 0 min 0 W/m 0,0 km/h (0 Bft) 95,74 %
20.08.2019 23:50 13,8 C 12,8 C 12,8 C 87 % 1026,5 hPa 0,0 l/m 0 min 0 min 0 W/m 0,0 km/h (0 Bft) 95,74 %
20.08.2019 23:52 13,8 C 12,8 C 12,8 C 87 % 1026,5 hPa 0,0 l/m 0 min 0 min 0 W/m 0,0 km/h (0 Bft) 93,62 %
20.08.2019 23:54 13,8 C 12,8 C 12,8 C 87 % 1026,4 hPa 0,0 l/m 0 min 0 min 0 W/m 0,0 km/h (0 Bft) 95,65 %
20.08.2019 23:56 13,8 C 12,8 C 12,8 C 88 % 1026,4 hPa 0,0 l/m 0 min 0 min 0 W/m 0,0 km/h (0 Bft) 95,74 %
20.08.2019 23:58 13,8 C 12,8 C 12,2 C 88 % 1026,4 hPa 0,0 l/m 0 min 0 min 0 W/m 0,0 km/h (0 Bft) 97,87 %
_ Min-Zeit 06:44 05:02 05:52 16:42 00:00 - - - - 02:44 00:02
Minimum _ 12,4 C 11,7 C 11,1 C 51 % 1019,6 hPa - - - - 0,0 km/h (0 Bft) 16,67 %
_ Max-Zeit 16:30 13:08 14:06 07:54 23:50 00:00 12:08 00:00 13:08 13:16 00:00
Maximum _ 23,7 C 29,4 C 26,1 C 91 % 1026,5 hPa 0,0 l/m 4 min 0 min 981 W/m 25,7 km/h
SO (4 Bft)
100,00 %
Durchschnitt _ 17,4 C 17,8 C 16,6 C 75 % 1022,7 hPa #0,0 l/m #7:24 h #0 min. 345 W/m 7,3 km/h (2 Bft) 97,35 %
© 2019 W. Hausmann